﻿<?xml version="1.0" encoding="UTF-8" standalone="no"?>
<gpx xmlns="http://www.topografix.com/GPX/1/1" xmlns:gpxtpx="http://www.garmin.com/xmlschemas/TrackPointExtension/v1" xmlns:xsi="http://www.w3.org/2001/XMLSchema-instance" creator="Hribi.net" version="1.1" xsi:schemaLocation="http://www.topografix.com/GPX/1/1 http://www.topografix.com/GPX/1/1/gpx.xsd http://www.garmin.com/xmlschemas/TrackPointExtension/v1 http://www.garmin.com/xmlschemas/TrackPointExtensionv1.xsd">
  <metadata>
    <name>GPS sled</name>
    <desc>www.hribi.net</desc>
    <author>
      <name>hribi.net</name>
    </author>
    <link href="http://www.hribi.net">
      <text>Hribi.net</text>
    </link>
  </metadata>
  <trk>
    <trkseg>
      <trkpt lat="45.61972" lon="13.90863">
        <ele>451.469757080077</ele>
        <time>2006-01-21T07:53:28Z</time>
      </trkpt>
      <trkpt lat="45.61974" lon="13.90865">
        <ele>451.957458496093</ele>
        <time>2006-01-21T07:53:49Z</time>
      </trkpt>
      <trkpt lat="45.61972" lon="13.90865">
        <ele>452.44512939453</ele>
        <time>2006-01-21T07:54:27Z</time>
      </trkpt>
      <trkpt lat="45.61972" lon="13.90865">
        <ele>451.957458496093</ele>
        <time>2006-01-21T07:55:01Z</time>
      </trkpt>
      <trkpt lat="45.61972" lon="13.90867">
        <ele>451.469757080077</ele>
        <time>2006-01-21T07:55:10Z</time>
      </trkpt>
      <trkpt lat="45.6197" lon="13.90867">
        <ele>451.957458496093</ele>
        <time>2006-01-21T07:55:46Z</time>
      </trkpt>
      <trkpt lat="45.61968" lon="13.90869">
        <ele>452.44512939453</ele>
        <time>2006-01-21T07:56:01Z</time>
      </trkpt>
      <trkpt lat="45.61955" lon="13.90886">
        <ele>452.44512939453</ele>
        <time>2006-01-21T07:56:20Z</time>
      </trkpt>
      <trkpt lat="45.61948" lon="13.90901">
        <ele>452.932800292968</ele>
        <time>2006-01-21T07:56:41Z</time>
      </trkpt>
      <trkpt lat="45.6194" lon="13.90914">
        <ele>453.390014648438</ele>
        <time>2006-01-21T07:56:57Z</time>
      </trkpt>
      <trkpt lat="45.61925" lon="13.90927">
        <ele>453.390014648438</ele>
        <time>2006-01-21T07:57:15Z</time>
      </trkpt>
      <trkpt lat="45.6191" lon="13.90949">
        <ele>452.932800292968</ele>
        <time>2006-01-21T07:57:34Z</time>
      </trkpt>
      <trkpt lat="45.6191" lon="13.90955">
        <ele>452.932800292968</ele>
        <time>2006-01-21T07:57:47Z</time>
      </trkpt>
      <trkpt lat="45.6191" lon="13.90957">
        <ele>453.390014648438</ele>
        <time>2006-01-21T07:57:54Z</time>
      </trkpt>
      <trkpt lat="45.6191" lon="13.90966">
        <ele>453.390014648438</ele>
        <time>2006-01-21T07:58:09Z</time>
      </trkpt>
      <trkpt lat="45.61914" lon="13.90961">
        <ele>452.44512939453</ele>
        <time>2006-01-21T07:59:13Z</time>
      </trkpt>
      <trkpt lat="45.61912" lon="13.90961">
        <ele>453.390014648438</ele>
        <time>2006-01-21T07:59:42Z</time>
      </trkpt>
      <trkpt lat="45.6191" lon="13.90961">
        <ele>453.390014648438</ele>
        <time>2006-01-21T08:00:00Z</time>
      </trkpt>
      <trkpt lat="45.61908" lon="13.90966">
        <ele>453.390014648438</ele>
        <time>2006-01-21T08:00:17Z</time>
      </trkpt>
      <trkpt lat="45.61908" lon="13.90968">
        <ele>453.390014648438</ele>
        <time>2006-01-21T08:01:00Z</time>
      </trkpt>
      <trkpt lat="45.6191" lon="13.9097">
        <ele>453.877685546875</ele>
        <time>2006-01-21T08:01:11Z</time>
      </trkpt>
      <trkpt lat="45.61914" lon="13.90976">
        <ele>453.877685546875</ele>
        <time>2006-01-21T08:01:22Z</time>
      </trkpt>
      <trkpt lat="45.61931" lon="13.90998">
        <ele>454.365356445313</ele>
        <time>2006-01-21T08:01:42Z</time>
      </trkpt>
      <trkpt lat="45.6195" lon="13.91017">
        <ele>455.310241699217</ele>
        <time>2006-01-21T08:02:03Z</time>
      </trkpt>
      <trkpt lat="45.61968" lon="13.91024">
        <ele>455.797912597658</ele>
        <time>2006-01-21T08:02:17Z</time>
      </trkpt>
      <trkpt lat="45.61991" lon="13.91026">
        <ele>456.773284912108</ele>
        <time>2006-01-21T08:02:37Z</time>
      </trkpt>
      <trkpt lat="45.61996" lon="13.91026">
        <ele>457.23046875</ele>
        <time>2006-01-21T08:02:57Z</time>
      </trkpt>
      <trkpt lat="45.62006" lon="13.91026">
        <ele>457.718139648437</ele>
        <time>2006-01-21T08:03:13Z</time>
      </trkpt>
      <trkpt lat="45.62021" lon="13.91024">
        <ele>457.718139648437</ele>
        <time>2006-01-21T08:03:25Z</time>
      </trkpt>
      <trkpt lat="45.62045" lon="13.91026">
        <ele>457.718139648437</ele>
        <time>2006-01-21T08:03:45Z</time>
      </trkpt>
      <trkpt lat="45.62056" lon="13.91028">
        <ele>453.390014648438</ele>
        <time>2006-01-21T08:03:56Z</time>
      </trkpt>
      <trkpt lat="45.62056" lon="13.91028">
        <ele>461.101440429689</ele>
        <time>2006-01-21T08:03:57Z</time>
      </trkpt>
      <trkpt lat="45.62058" lon="13.91028">
        <ele>457.23046875</ele>
        <time>2006-01-21T08:03:58Z</time>
      </trkpt>
      <trkpt lat="45.62086" lon="13.91037">
        <ele>458.693542480469</ele>
        <time>2006-01-21T08:04:20Z</time>
      </trkpt>
      <trkpt lat="45.62116" lon="13.91056">
        <ele>458.693542480469</ele>
        <time>2006-01-21T08:04:47Z</time>
      </trkpt>
      <trkpt lat="45.62133" lon="13.91086">
        <ele>460.126068115235</ele>
        <time>2006-01-21T08:05:10Z</time>
      </trkpt>
      <trkpt lat="45.62144" lon="13.91116">
        <ele>462.533996582031</ele>
        <time>2006-01-21T08:05:28Z</time>
      </trkpt>
      <trkpt lat="45.6215" lon="13.91155">
        <ele>463.021667480468</ele>
        <time>2006-01-21T08:05:51Z</time>
      </trkpt>
      <trkpt lat="45.62154" lon="13.91197">
        <ele>464.941925048829</ele>
        <time>2006-01-21T08:06:16Z</time>
      </trkpt>
      <trkpt lat="45.62161" lon="13.91236">
        <ele>466.374481201171</ele>
        <time>2006-01-21T08:06:39Z</time>
      </trkpt>
      <trkpt lat="45.62176" lon="13.91266">
        <ele>467.807067871095</ele>
        <time>2006-01-21T08:07:00Z</time>
      </trkpt>
      <trkpt lat="45.62186" lon="13.9129">
        <ele>470.214935302736</ele>
        <time>2006-01-21T08:07:17Z</time>
      </trkpt>
      <trkpt lat="45.62191" lon="13.91298">
        <ele>470.702667236328</ele>
        <time>2006-01-21T08:07:22Z</time>
      </trkpt>
      <trkpt lat="45.62191" lon="13.913">
        <ele>470.214935302736</ele>
        <time>2006-01-21T08:07:24Z</time>
      </trkpt>
      <trkpt lat="45.62204" lon="13.91333">
        <ele>472.135192871094</ele>
        <time>2006-01-21T08:07:45Z</time>
      </trkpt>
      <trkpt lat="45.62217" lon="13.91365">
        <ele>472.135192871094</ele>
        <time>2006-01-21T08:08:06Z</time>
      </trkpt>
      <trkpt lat="45.62221" lon="13.91373">
        <ele>472.622863769531</ele>
        <time>2006-01-21T08:08:13Z</time>
      </trkpt>
      <trkpt lat="45.62223" lon="13.91376">
        <ele>472.622863769531</ele>
        <time>2006-01-21T08:08:15Z</time>
      </trkpt>
      <trkpt lat="45.62227" lon="13.9138">
        <ele>473.110534667968</ele>
        <time>2006-01-21T08:08:19Z</time>
      </trkpt>
      <trkpt lat="45.62242" lon="13.91408">
        <ele>474.543121337889</ele>
        <time>2006-01-21T08:08:40Z</time>
      </trkpt>
      <trkpt lat="45.62244" lon="13.9141">
        <ele>474.543121337889</ele>
        <time>2006-01-21T08:08:43Z</time>
      </trkpt>
      <trkpt lat="45.62247" lon="13.9141">
        <ele>474.543121337889</ele>
        <time>2006-01-21T08:08:45Z</time>
      </trkpt>
      <trkpt lat="45.62251" lon="13.91406">
        <ele>474.055450439452</ele>
        <time>2006-01-21T08:08:49Z</time>
      </trkpt>
      <trkpt lat="45.62255" lon="13.91367">
        <ele>475.518463134767</ele>
        <time>2006-01-21T08:09:13Z</time>
      </trkpt>
      <trkpt lat="45.62257" lon="13.91326">
        <ele>475.518463134767</ele>
        <time>2006-01-21T08:09:37Z</time>
      </trkpt>
      <trkpt lat="45.62266" lon="13.91292">
        <ele>476.463348388672</ele>
        <time>2006-01-21T08:10:00Z</time>
      </trkpt>
      <trkpt lat="45.62277" lon="13.91262">
        <ele>476.463348388672</ele>
        <time>2006-01-21T08:10:19Z</time>
      </trkpt>
      <trkpt lat="45.62287" lon="13.9123">
        <ele>477.438720703125</ele>
        <time>2006-01-21T08:10:40Z</time>
      </trkpt>
      <trkpt lat="45.62304" lon="13.91206">
        <ele>477.926391601562</ele>
        <time>2006-01-21T08:11:00Z</time>
      </trkpt>
      <trkpt lat="45.62322" lon="13.91215">
        <ele>479.358947753907</ele>
        <time>2006-01-21T08:11:21Z</time>
      </trkpt>
      <trkpt lat="45.62345" lon="13.91225">
        <ele>481.766876220702</ele>
        <time>2006-01-21T08:11:46Z</time>
      </trkpt>
      <trkpt lat="45.62367" lon="13.91238">
        <ele>482.224060058594</ele>
        <time>2006-01-21T08:12:09Z</time>
      </trkpt>
      <trkpt lat="45.62386" lon="13.91249">
        <ele>484.63198852539</ele>
        <time>2006-01-21T08:12:31Z</time>
      </trkpt>
      <trkpt lat="45.62401" lon="13.9126">
        <ele>487.039916992188</ele>
        <time>2006-01-21T08:12:51Z</time>
      </trkpt>
      <trkpt lat="45.62418" lon="13.91266">
        <ele>489.935516357421</ele>
        <time>2006-01-21T08:13:12Z</time>
      </trkpt>
      <trkpt lat="45.62431" lon="13.91275">
        <ele>490.880401611328</ele>
        <time>2006-01-21T08:13:42Z</time>
      </trkpt>
      <trkpt lat="45.62442" lon="13.91283">
        <ele>493.776000976564</ele>
        <time>2006-01-21T08:16:21Z</time>
      </trkpt>
      <trkpt lat="45.62453" lon="13.9129">
        <ele>496.671600341797</ele>
        <time>2006-01-21T08:16:34Z</time>
      </trkpt>
      <trkpt lat="45.62455" lon="13.9129">
        <ele>496.671600341797</ele>
        <time>2006-01-21T08:16:51Z</time>
      </trkpt>
      <trkpt lat="45.62457" lon="13.9129">
        <ele>495.208557128906</ele>
        <time>2006-01-21T08:16:56Z</time>
      </trkpt>
      <trkpt lat="45.62455" lon="13.91292">
        <ele>496.183929443359</ele>
        <time>2006-01-21T08:18:12Z</time>
      </trkpt>
      <trkpt lat="45.62455" lon="13.91292">
        <ele>496.183929443359</ele>
        <time>2006-01-21T08:18:50Z</time>
      </trkpt>
      <trkpt lat="45.62457" lon="13.91294">
        <ele>496.671600341797</ele>
        <time>2006-01-21T08:19:11Z</time>
      </trkpt>
      <trkpt lat="45.62459" lon="13.91296">
        <ele>497.128814697267</ele>
        <time>2006-01-21T08:19:38Z</time>
      </trkpt>
      <trkpt lat="45.62463" lon="13.913">
        <ele>497.616485595704</ele>
        <time>2006-01-21T08:19:55Z</time>
      </trkpt>
      <trkpt lat="45.62465" lon="13.91309">
        <ele>498.104156494142</ele>
        <time>2006-01-21T08:21:05Z</time>
      </trkpt>
      <trkpt lat="45.62472" lon="13.91333">
        <ele>499.536712646484</ele>
        <time>2006-01-21T08:21:26Z</time>
      </trkpt>
      <trkpt lat="45.62478" lon="13.91352">
        <ele>501.456939697266</ele>
        <time>2006-01-21T08:21:45Z</time>
      </trkpt>
      <trkpt lat="45.62485" lon="13.91376">
        <ele>503.377197265624</ele>
        <time>2006-01-21T08:22:05Z</time>
      </trkpt>
      <trkpt lat="45.62485" lon="13.91376">
        <ele>503.377197265624</ele>
        <time>2006-01-21T08:22:06Z</time>
      </trkpt>
      <trkpt lat="45.62498" lon="13.91393">
        <ele>506.27279663086</ele>
        <time>2006-01-21T08:22:26Z</time>
      </trkpt>
      <trkpt lat="45.62506" lon="13.91391">
        <ele>506.760467529297</ele>
        <time>2006-01-21T08:22:36Z</time>
      </trkpt>
      <trkpt lat="45.62517" lon="13.91369">
        <ele>508.680725097655</ele>
        <time>2006-01-21T08:22:57Z</time>
      </trkpt>
      <trkpt lat="45.6253" lon="13.91348">
        <ele>510.11328125</ele>
        <time>2006-01-21T08:23:19Z</time>
      </trkpt>
      <trkpt lat="45.62543" lon="13.91328">
        <ele>512.033508300782</ele>
        <time>2006-01-21T08:23:40Z</time>
      </trkpt>
      <trkpt lat="45.62556" lon="13.91307">
        <ele>514.441467285156</ele>
        <time>2006-01-21T08:24:00Z</time>
      </trkpt>
      <trkpt lat="45.62571" lon="13.91285">
        <ele>515.874023437498</ele>
        <time>2006-01-21T08:24:22Z</time>
      </trkpt>
      <trkpt lat="45.62583" lon="13.91266">
        <ele>516.849365234376</ele>
        <time>2006-01-21T08:24:44Z</time>
      </trkpt>
      <trkpt lat="45.62596" lon="13.91245">
        <ele>517.794250488281</ele>
        <time>2006-01-21T08:25:05Z</time>
      </trkpt>
      <trkpt lat="45.62609" lon="13.91225">
        <ele>518.769592285156</ele>
        <time>2006-01-21T08:25:26Z</time>
      </trkpt>
      <trkpt lat="45.62622" lon="13.91206">
        <ele>521.177551269533</ele>
        <time>2006-01-21T08:25:46Z</time>
      </trkpt>
      <trkpt lat="45.62633" lon="13.91189">
        <ele>522.122375488283</ele>
        <time>2006-01-21T08:26:06Z</time>
      </trkpt>
      <trkpt lat="45.62644" lon="13.91172">
        <ele>523.585449218749</ele>
        <time>2006-01-21T08:26:26Z</time>
      </trkpt>
      <trkpt lat="45.62661" lon="13.91155">
        <ele>525.018005371094</ele>
        <time>2006-01-21T08:26:50Z</time>
      </trkpt>
      <trkpt lat="45.62676" lon="13.91144">
        <ele>526.938232421873</ele>
        <time>2006-01-21T08:27:10Z</time>
      </trkpt>
      <trkpt lat="45.62691" lon="13.91131">
        <ele>529.346130371093</ele>
        <time>2006-01-21T08:27:31Z</time>
      </trkpt>
      <trkpt lat="45.6271" lon="13.91118">
        <ele>531.26641845703</ele>
        <time>2006-01-21T08:27:56Z</time>
      </trkpt>
      <trkpt lat="45.62714" lon="13.91116">
        <ele>531.75408935547</ele>
        <time>2006-01-21T08:28:02Z</time>
      </trkpt>
      <trkpt lat="45.62727" lon="13.91107">
        <ele>532.698974609375</ele>
        <time>2006-01-21T08:28:19Z</time>
      </trkpt>
      <trkpt lat="45.62729" lon="13.91105">
        <ele>533.186645507812</ele>
        <time>2006-01-21T08:28:43Z</time>
      </trkpt>
      <trkpt lat="45.62729" lon="13.91107">
        <ele>534.619201660157</ele>
        <time>2006-01-21T08:29:58Z</time>
      </trkpt>
      <trkpt lat="45.62729" lon="13.91107">
        <ele>535.594543457032</ele>
        <time>2006-01-21T08:30:05Z</time>
      </trkpt>
      <trkpt lat="45.6274" lon="13.91107">
        <ele>536.539428710936</ele>
        <time>2006-01-21T08:30:26Z</time>
      </trkpt>
      <trkpt lat="45.62747" lon="13.91122">
        <ele>538.002502441406</ele>
        <time>2006-01-21T08:30:44Z</time>
      </trkpt>
      <trkpt lat="45.62749" lon="13.91144">
        <ele>538.947326660156</ele>
        <time>2006-01-21T08:31:04Z</time>
      </trkpt>
      <trkpt lat="45.62749" lon="13.91161">
        <ele>538.947326660156</ele>
        <time>2006-01-21T08:31:18Z</time>
      </trkpt>
      <trkpt lat="45.62747" lon="13.91182">
        <ele>540.410400390626</ele>
        <time>2006-01-21T08:31:36Z</time>
      </trkpt>
      <trkpt lat="45.62742" lon="13.91206">
        <ele>541.35528564453</ele>
        <time>2006-01-21T08:31:56Z</time>
      </trkpt>
      <trkpt lat="45.62736" lon="13.91227">
        <ele>542.787841796875</ele>
        <time>2006-01-21T08:32:13Z</time>
      </trkpt>
      <trkpt lat="45.62729" lon="13.91258">
        <ele>543.76318359375</ele>
        <time>2006-01-21T08:32:35Z</time>
      </trkpt>
      <trkpt lat="45.62725" lon="13.91288">
        <ele>544.250854492187</ele>
        <time>2006-01-21T08:32:56Z</time>
      </trkpt>
      <trkpt lat="45.62721" lon="13.91315">
        <ele>544.738525390624</ele>
        <time>2006-01-21T08:33:16Z</time>
      </trkpt>
      <trkpt lat="45.62723" lon="13.91341">
        <ele>546.171142578124</ele>
        <time>2006-01-21T08:33:36Z</time>
      </trkpt>
      <trkpt lat="45.62732" lon="13.91361">
        <ele>548.091369628906</ele>
        <time>2006-01-21T08:33:55Z</time>
      </trkpt>
      <trkpt lat="45.62744" lon="13.91373">
        <ele>550.499267578126</ele>
        <time>2006-01-21T08:34:13Z</time>
      </trkpt>
      <trkpt lat="45.62757" lon="13.91373">
        <ele>552.9072265625</ele>
        <time>2006-01-21T08:34:31Z</time>
      </trkpt>
      <trkpt lat="45.62772" lon="13.91365">
        <ele>554.339721679688</ele>
        <time>2006-01-21T08:34:47Z</time>
      </trkpt>
      <trkpt lat="45.62785" lon="13.91356">
        <ele>555.28466796875</ele>
        <time>2006-01-21T08:35:03Z</time>
      </trkpt>
      <trkpt lat="45.628" lon="13.91348">
        <ele>557.692565917969</ele>
        <time>2006-01-21T08:35:21Z</time>
      </trkpt>
      <trkpt lat="45.62817" lon="13.91337">
        <ele>559.155578613281</ele>
        <time>2006-01-21T08:35:39Z</time>
      </trkpt>
      <trkpt lat="45.6283" lon="13.91326">
        <ele>560.100463867189</ele>
        <time>2006-01-21T08:35:54Z</time>
      </trkpt>
      <trkpt lat="45.62845" lon="13.91315">
        <ele>560.100463867189</ele>
        <time>2006-01-21T08:36:11Z</time>
      </trkpt>
      <trkpt lat="45.6286" lon="13.91305">
        <ele>561.075866699218</ele>
        <time>2006-01-21T08:36:28Z</time>
      </trkpt>
      <trkpt lat="45.62886" lon="13.91292">
        <ele>562.508422851563</ele>
        <time>2006-01-21T08:36:55Z</time>
      </trkpt>
      <trkpt lat="45.62905" lon="13.91288">
        <ele>562.99609375</ele>
        <time>2006-01-21T08:38:24Z</time>
      </trkpt>
      <trkpt lat="45.62907" lon="13.91303">
        <ele>564.428649902342</ele>
        <time>2006-01-21T08:38:41Z</time>
      </trkpt>
      <trkpt lat="45.62907" lon="13.9132">
        <ele>565.861206054687</ele>
        <time>2006-01-21T08:38:57Z</time>
      </trkpt>
      <trkpt lat="45.62905" lon="13.91335">
        <ele>567.78143310547</ele>
        <time>2006-01-21T08:39:12Z</time>
      </trkpt>
      <trkpt lat="45.62899" lon="13.91358">
        <ele>570.189331054686</ele>
        <time>2006-01-21T08:39:33Z</time>
      </trkpt>
      <trkpt lat="45.62897" lon="13.91371">
        <ele>570.189331054686</ele>
        <time>2006-01-21T08:39:43Z</time>
      </trkpt>
      <trkpt lat="45.62897" lon="13.91399">
        <ele>572.109619140626</ele>
        <time>2006-01-21T08:40:04Z</time>
      </trkpt>
      <trkpt lat="45.62903" lon="13.91418">
        <ele>574.517517089843</ele>
        <time>2006-01-21T08:40:24Z</time>
      </trkpt>
      <trkpt lat="45.6292" lon="13.91425">
        <ele>577.413146972657</ele>
        <time>2006-01-21T08:40:46Z</time>
      </trkpt>
      <trkpt lat="45.62933" lon="13.91429">
        <ele>578.845642089845</ele>
        <time>2006-01-21T08:41:04Z</time>
      </trkpt>
      <trkpt lat="45.62946" lon="13.91444">
        <ele>581.253601074219</ele>
        <time>2006-01-21T08:41:24Z</time>
      </trkpt>
      <trkpt lat="45.62953" lon="13.91464">
        <ele>583.173828125001</ele>
        <time>2006-01-21T08:41:43Z</time>
      </trkpt>
      <trkpt lat="45.62959" lon="13.91479">
        <ele>586.069458007813</ele>
        <time>2006-01-21T08:42:01Z</time>
      </trkpt>
      <trkpt lat="45.62965" lon="13.91496">
        <ele>587.014343261717</ele>
        <time>2006-01-21T08:42:20Z</time>
      </trkpt>
      <trkpt lat="45.6297149658203" lon="13.9151382446289">
        <ele>590.854797363282</ele>
        <time>2006-01-21T08:43:29Z</time>
      </trkpt>
      <trkpt lat="45.62974" lon="13.9153">
        <ele>592.317871093752</ele>
        <time>2006-01-21T08:44:01Z</time>
      </trkpt>
      <trkpt lat="45.62972" lon="13.91556">
        <ele>594.238098144531</ele>
        <time>2006-01-21T08:44:26Z</time>
      </trkpt>
      <trkpt lat="45.62968" lon="13.91579">
        <ele>596.158325195313</ele>
        <time>2006-01-21T08:44:46Z</time>
      </trkpt>
      <trkpt lat="45.62959" lon="13.91592">
        <ele>597.103210449218</ele>
        <time>2006-01-21T08:45:05Z</time>
      </trkpt>
      <trkpt lat="45.62957" lon="13.91607">
        <ele>597.103210449218</ele>
        <time>2006-01-21T08:45:18Z</time>
      </trkpt>
      <trkpt lat="45.62955" lon="13.91614">
        <ele>597.103210449218</ele>
        <time>2006-01-21T08:45:22Z</time>
      </trkpt>
      <trkpt lat="45.62942" lon="13.91654">
        <ele>597.103210449218</ele>
        <time>2006-01-21T08:45:50Z</time>
      </trkpt>
      <trkpt lat="45.62933" lon="13.91687">
        <ele>597.103210449218</ele>
        <time>2006-01-21T08:46:13Z</time>
      </trkpt>
      <trkpt lat="45.62929" lon="13.91719">
        <ele>599.0234375</ele>
        <time>2006-01-21T08:46:36Z</time>
      </trkpt>
      <trkpt lat="45.62931" lon="13.9176">
        <ele>600.974121093749</ele>
        <time>2006-01-21T08:47:06Z</time>
      </trkpt>
      <trkpt lat="45.62933" lon="13.91783">
        <ele>602.894409179686</ele>
        <time>2006-01-21T08:47:28Z</time>
      </trkpt>
      <trkpt lat="45.6294" lon="13.91803">
        <ele>604.814636230468</ele>
        <time>2006-01-21T08:47:46Z</time>
      </trkpt>
      <trkpt lat="45.62944" lon="13.91824">
        <ele>605.759521484376</ele>
        <time>2006-01-21T08:49:13Z</time>
      </trkpt>
      <trkpt lat="45.62957" lon="13.91843">
        <ele>606.73486328125</ele>
        <time>2006-01-21T08:49:34Z</time>
      </trkpt>
      <trkpt lat="45.62965" lon="13.91856">
        <ele>607.679748535155</ele>
        <time>2006-01-21T08:49:48Z</time>
      </trkpt>
      <trkpt lat="45.62983" lon="13.91876">
        <ele>609.142822265625</ele>
        <time>2006-01-21T08:50:10Z</time>
      </trkpt>
      <trkpt lat="45.62995" lon="13.91899">
        <ele>610.087646484375</ele>
        <time>2006-01-21T08:50:33Z</time>
      </trkpt>
      <trkpt lat="45.63002" lon="13.91923">
        <ele>611.550720214844</ele>
        <time>2006-01-21T08:50:52Z</time>
      </trkpt>
      <trkpt lat="45.63013" lon="13.91944">
        <ele>612.983276367186</ele>
        <time>2006-01-21T08:51:10Z</time>
      </trkpt>
      <trkpt lat="45.63028" lon="13.91972">
        <ele>612.495605468749</ele>
        <time>2006-01-21T08:51:35Z</time>
      </trkpt>
      <trkpt lat="45.63045" lon="13.91994">
        <ele>612.495605468749</ele>
        <time>2006-01-21T08:51:57Z</time>
      </trkpt>
      <trkpt lat="45.63066" lon="13.92009">
        <ele>612.007934570312</ele>
        <time>2006-01-21T08:52:18Z</time>
      </trkpt>
      <trkpt lat="45.63094" lon="13.92013">
        <ele>610.087646484375</ele>
        <time>2006-01-21T08:52:43Z</time>
      </trkpt>
      <trkpt lat="45.63109" lon="13.92013">
        <ele>608.655151367188</ele>
        <time>2006-01-21T08:53:01Z</time>
      </trkpt>
      <trkpt lat="45.63133" lon="13.92017">
        <ele>606.73486328125</ele>
        <time>2006-01-21T08:53:22Z</time>
      </trkpt>
      <trkpt lat="45.63152" lon="13.92036">
        <ele>603.839294433594</ele>
        <time>2006-01-21T08:53:45Z</time>
      </trkpt>
      <trkpt lat="45.63169" lon="13.92066">
        <ele>603.351623535156</ele>
        <time>2006-01-21T08:54:10Z</time>
      </trkpt>
      <trkpt lat="45.63189" lon="13.92088">
        <ele>603.839294433594</ele>
        <time>2006-01-21T08:54:32Z</time>
      </trkpt>
      <trkpt lat="45.63259" lon="13.92131">
        <ele>602.894409179686</ele>
        <time>2006-01-21T09:01:18Z</time>
      </trkpt>
      <trkpt lat="45.63272" lon="13.92167">
        <ele>603.839294433594</ele>
        <time>2006-01-21T09:01:53Z</time>
      </trkpt>
      <trkpt lat="45.63274" lon="13.92178">
        <ele>604.326965332031</ele>
        <time>2006-01-21T09:02:01Z</time>
      </trkpt>
      <trkpt lat="45.63281" lon="13.92204">
        <ele>607.679748535155</ele>
        <time>2006-01-21T09:02:21Z</time>
      </trkpt>
      <trkpt lat="45.63287" lon="13.92221">
        <ele>607.222534179688</ele>
        <time>2006-01-21T09:02:41Z</time>
      </trkpt>
      <trkpt lat="45.63302" lon="13.92255">
        <ele>607.679748535155</ele>
        <time>2006-01-21T09:03:08Z</time>
      </trkpt>
      <trkpt lat="45.63315" lon="13.92279">
        <ele>607.222534179688</ele>
        <time>2006-01-21T09:03:28Z</time>
      </trkpt>
      <trkpt lat="45.6333" lon="13.92318">
        <ele>607.679748535155</ele>
        <time>2006-01-21T09:03:58Z</time>
      </trkpt>
      <trkpt lat="45.63334" lon="13.9233">
        <ele>601.919067382811</ele>
        <time>2006-01-21T09:04:08Z</time>
      </trkpt>
      <trkpt lat="45.63334" lon="13.92333">
        <ele>601.919067382811</ele>
        <time>2006-01-21T09:04:09Z</time>
      </trkpt>
      <trkpt lat="45.63337" lon="13.92333">
        <ele>609.599975585938</ele>
        <time>2006-01-21T09:04:10Z</time>
      </trkpt>
      <trkpt lat="45.63337" lon="13.92333">
        <ele>607.679748535155</ele>
        <time>2006-01-21T09:04:11Z</time>
      </trkpt>
      <trkpt lat="45.634143" lon="13.924453">
        <ele>607.679748535155</ele>
        <time>2006-01-21T09:04:32Z</time>
      </trkpt>
      <trkpt lat="45.634143" lon="13.924453">
        <ele>608.655151367188</ele>
        <time>2006-01-21T09:04:51Z</time>
      </trkpt>
      <trkpt lat="45.634228" lon="13.924575">
        <ele>610.575317382812</ele>
        <time>2006-01-21T09:05:05Z</time>
      </trkpt>
      <trkpt lat="45.634481" lon="13.924696">
        <ele>612.495605468749</ele>
        <time>2006-01-21T09:05:36Z</time>
      </trkpt>
      <trkpt lat="45.634566" lon="13.924818">
        <ele>612.983276367186</ele>
        <time>2006-01-21T09:06:07Z</time>
      </trkpt>
      <trkpt lat="45.63465" lon="13.924696">
        <ele>612.495605468749</ele>
        <time>2006-01-21T09:06:24Z</time>
      </trkpt>
      <trkpt lat="45.635835" lon="13.926037">
        <ele>609.599975585938</ele>
        <time>2006-01-21T09:07:08Z</time>
      </trkpt>
      <trkpt lat="45.635919" lon="13.926037">
        <ele>609.142822265625</ele>
        <time>2006-01-21T09:07:24Z</time>
      </trkpt>
      <trkpt lat="45.635919" lon="13.926037">
        <ele>612.495605468749</ele>
        <time>2006-01-21T09:08:02Z</time>
      </trkpt>
      <trkpt lat="45.635919" lon="13.926037">
        <ele>615.391174316406</ele>
        <time>2006-01-21T09:08:33Z</time>
      </trkpt>
      <trkpt lat="45.635919" lon="13.926037">
        <ele>620.17657470703</ele>
        <time>2006-01-21T09:09:30Z</time>
      </trkpt>
      <trkpt lat="45.635919" lon="13.926037">
        <ele>623.559875488282</ele>
        <time>2006-01-21T09:10:53Z</time>
      </trkpt>
      <trkpt lat="45.635919" lon="13.926037">
        <ele>625.480102539064</ele>
        <time>2006-01-21T09:11:17Z</time>
      </trkpt>
      <trkpt lat="45.635919" lon="13.926037">
        <ele>628.832885742188</ele>
        <time>2006-01-21T09:11:46Z</time>
      </trkpt>
      <trkpt lat="45.635919" lon="13.926037">
        <ele>632.216125488282</ele>
        <time>2006-01-21T09:12:15Z</time>
      </trkpt>
      <trkpt lat="45.635919" lon="13.926037">
        <ele>635.081298828124</ele>
        <time>2006-01-21T09:13:02Z</time>
      </trkpt>
      <trkpt lat="45.635919" lon="13.926037">
        <ele>632.216125488282</ele>
        <time>2006-01-21T09:14:07Z</time>
      </trkpt>
      <trkpt lat="45.636426" lon="13.926035">
        <ele>634.593627929686</ele>
        <time>2006-01-21T09:15:09Z</time>
      </trkpt>
      <trkpt lat="45.636426" lon="13.926035">
        <ele>634.593627929686</ele>
        <time>2006-01-21T09:15:19Z</time>
      </trkpt>
      <trkpt lat="45.6371" lon="13.925543">
        <ele>635.081298828124</ele>
        <time>2006-01-21T09:15:29Z</time>
      </trkpt>
      <trkpt lat="45.63796" lon="13.92498">
        <ele>637.001464843749</ele>
        <time>2006-01-21T09:16:06Z</time>
      </trkpt>
      <trkpt lat="45.63817" lon="13.92509">
        <ele>637.001464843749</ele>
        <time>2006-01-21T09:16:26Z</time>
      </trkpt>
      <trkpt lat="45.638787" lon="13.924437">
        <ele>636.056640624998</ele>
        <time>2006-01-21T09:17:09Z</time>
      </trkpt>
      <trkpt lat="45.639462" lon="13.923945">
        <ele>637.001464843749</ele>
        <time>2006-01-21T09:17:49Z</time>
      </trkpt>
      <trkpt lat="45.639462" lon="13.923945">
        <ele>640.384826660155</ele>
        <time>2006-01-21T09:20:28Z</time>
      </trkpt>
      <trkpt lat="45.639462" lon="13.923945">
        <ele>644.22528076172</ele>
        <time>2006-01-21T09:21:17Z</time>
      </trkpt>
      <trkpt lat="45.640894" lon="13.922227">
        <ele>641.329711914063</ele>
        <time>2006-01-21T09:24:07Z</time>
      </trkpt>
      <trkpt lat="45.641061" lon="13.921004">
        <ele>642.79266357422</ele>
        <time>2006-01-21T09:24:34Z</time>
      </trkpt>
      <trkpt lat="45.641061" lon="13.920759">
        <ele>646.145507812499</ele>
        <time>2006-01-21T09:24:53Z</time>
      </trkpt>
      <trkpt lat="45.64101" lon="13.91985">
        <ele>645.657836914062</ele>
        <time>2006-01-21T09:25:14Z</time>
      </trkpt>
      <trkpt lat="45.64094" lon="13.91959">
        <ele>646.145507812499</ele>
        <time>2006-01-21T09:25:34Z</time>
      </trkpt>
      <trkpt lat="45.64085" lon="13.91921">
        <ele>644.712951660157</ele>
        <time>2006-01-21T09:26:02Z</time>
      </trkpt>
      <trkpt lat="45.64085" lon="13.91921">
        <ele>648.065734863281</ele>
        <time>2006-01-21T09:26:03Z</time>
      </trkpt>
      <trkpt lat="45.64085" lon="13.91888">
        <ele>647.090393066406</ele>
        <time>2006-01-21T09:26:23Z</time>
      </trkpt>
      <trkpt lat="45.64083" lon="13.9186">
        <ele>647.090393066406</ele>
        <time>2006-01-21T09:26:42Z</time>
      </trkpt>
      <trkpt lat="45.64068" lon="13.91824">
        <ele>646.145507812499</ele>
        <time>2006-01-21T09:27:06Z</time>
      </trkpt>
      <trkpt lat="45.64047" lon="13.9179">
        <ele>644.712951660157</ele>
        <time>2006-01-21T09:27:33Z</time>
      </trkpt>
      <trkpt lat="45.64032" lon="13.91757">
        <ele>642.305053710937</ele>
        <time>2006-01-21T09:27:58Z</time>
      </trkpt>
      <trkpt lat="45.64028" lon="13.91738">
        <ele>642.79266357422</ele>
        <time>2006-01-21T09:28:17Z</time>
      </trkpt>
      <trkpt lat="45.64021" lon="13.91717">
        <ele>643.249877929687</ele>
        <time>2006-01-21T09:28:35Z</time>
      </trkpt>
      <trkpt lat="45.64008" lon="13.91682">
        <ele>642.79266357422</ele>
        <time>2006-01-21T09:28:59Z</time>
      </trkpt>
      <trkpt lat="45.64006" lon="13.91663">
        <ele>642.79266357422</ele>
        <time>2006-01-21T09:29:15Z</time>
      </trkpt>
      <trkpt lat="45.64013" lon="13.91633">
        <ele>640.841979980468</ele>
        <time>2006-01-21T09:29:33Z</time>
      </trkpt>
      <trkpt lat="45.64019" lon="13.91599">
        <ele>642.305053710937</ele>
        <time>2006-01-21T09:29:56Z</time>
      </trkpt>
      <trkpt lat="45.64021" lon="13.91549">
        <ele>639.897094726563</ele>
        <time>2006-01-21T09:30:24Z</time>
      </trkpt>
      <trkpt lat="45.64021" lon="13.91504">
        <ele>637.489196777344</ele>
        <time>2006-01-21T09:30:49Z</time>
      </trkpt>
      <trkpt lat="45.64023" lon="13.91466">
        <ele>636.056640624998</ele>
        <time>2006-01-21T09:31:11Z</time>
      </trkpt>
      <trkpt lat="45.64023" lon="13.91429">
        <ele>632.67333984375</ele>
        <time>2006-01-21T09:31:32Z</time>
      </trkpt>
      <trkpt lat="45.64023" lon="13.9141">
        <ele>633.648681640624</ele>
        <time>2006-01-21T09:31:57Z</time>
      </trkpt>
      <trkpt lat="45.64023" lon="13.91416">
        <ele>634.136413574219</ele>
        <time>2006-01-21T09:32:38Z</time>
      </trkpt>
      <trkpt lat="45.64023" lon="13.91416">
        <ele>634.136413574219</ele>
        <time>2006-01-21T09:33:32Z</time>
      </trkpt>
      <trkpt lat="45.64023" lon="13.91414">
        <ele>635.081298828124</ele>
        <time>2006-01-21T09:33:47Z</time>
      </trkpt>
      <trkpt lat="45.64023" lon="13.91414">
        <ele>629.320556640626</ele>
        <time>2006-01-21T09:33:49Z</time>
      </trkpt>
      <trkpt lat="45.64023" lon="13.91412">
        <ele>637.489196777344</ele>
        <time>2006-01-21T09:33:50Z</time>
      </trkpt>
      <trkpt lat="45.64023" lon="13.9141">
        <ele>633.648681640624</ele>
        <time>2006-01-21T09:33:51Z</time>
      </trkpt>
      <trkpt lat="45.64023" lon="13.91393">
        <ele>633.161071777345</ele>
        <time>2006-01-21T09:34:09Z</time>
      </trkpt>
      <trkpt lat="45.64025" lon="13.91382">
        <ele>633.161071777345</ele>
        <time>2006-01-21T09:34:26Z</time>
      </trkpt>
      <trkpt lat="45.64025" lon="13.91373">
        <ele>633.161071777345</ele>
        <time>2006-01-21T09:34:38Z</time>
      </trkpt>
      <trkpt lat="45.64032" lon="13.91341">
        <ele>631.728515625</ele>
        <time>2006-01-21T09:35:02Z</time>
      </trkpt>
      <trkpt lat="45.6404" lon="13.91315">
        <ele>632.216125488282</ele>
        <time>2006-01-21T09:35:23Z</time>
      </trkpt>
      <trkpt lat="45.64047" lon="13.91296">
        <ele>633.648681640624</ele>
        <time>2006-01-21T09:35:41Z</time>
      </trkpt>
      <trkpt lat="45.64047" lon="13.91294">
        <ele>629.320556640626</ele>
        <time>2006-01-21T09:35:42Z</time>
      </trkpt>
      <trkpt lat="45.64047" lon="13.91294">
        <ele>633.161071777345</ele>
        <time>2006-01-21T09:35:43Z</time>
      </trkpt>
      <trkpt lat="45.64053" lon="13.91273">
        <ele>635.568969726561</ele>
        <time>2006-01-21T09:36:06Z</time>
      </trkpt>
      <trkpt lat="45.6406" lon="13.91253">
        <ele>635.568969726561</ele>
        <time>2006-01-21T09:36:23Z</time>
      </trkpt>
      <trkpt lat="45.64068" lon="13.91223">
        <ele>637.001464843749</ele>
        <time>2006-01-21T09:36:44Z</time>
      </trkpt>
      <trkpt lat="45.64073" lon="13.91191">
        <ele>636.544311523439</ele>
        <time>2006-01-21T09:37:06Z</time>
      </trkpt>
      <trkpt lat="45.64077" lon="13.91161">
        <ele>637.001464843749</ele>
        <time>2006-01-21T09:37:24Z</time>
      </trkpt>
      <trkpt lat="45.6409" lon="13.91137">
        <ele>637.489196777344</ele>
        <time>2006-01-21T09:37:45Z</time>
      </trkpt>
      <trkpt lat="45.64103" lon="13.91114">
        <ele>638.464538574218</ele>
        <time>2006-01-21T09:38:05Z</time>
      </trkpt>
      <trkpt lat="45.64109" lon="13.91077">
        <ele>637.489196777344</ele>
        <time>2006-01-21T09:38:27Z</time>
      </trkpt>
      <trkpt lat="45.64109" lon="13.91045">
        <ele>637.976928710938</ele>
        <time>2006-01-21T09:38:45Z</time>
      </trkpt>
      <trkpt lat="45.64113" lon="13.91006">
        <ele>636.544311523439</ele>
        <time>2006-01-21T09:39:08Z</time>
      </trkpt>
      <trkpt lat="45.64116" lon="13.9097">
        <ele>635.568969726561</ele>
        <time>2006-01-21T09:39:30Z</time>
      </trkpt>
      <trkpt lat="45.64122" lon="13.90936">
        <ele>636.056640624998</ele>
        <time>2006-01-21T09:39:52Z</time>
      </trkpt>
      <trkpt lat="45.64124" lon="13.90931">
        <ele>636.056640624998</ele>
        <time>2006-01-21T09:40:09Z</time>
      </trkpt>
      <trkpt lat="45.64126" lon="13.90923">
        <ele>635.568969726561</ele>
        <time>2006-01-21T09:40:24Z</time>
      </trkpt>
      <trkpt lat="45.64133" lon="13.90901">
        <ele>637.489196777344</ele>
        <time>2006-01-21T09:40:44Z</time>
      </trkpt>
      <trkpt lat="45.64139" lon="13.90876">
        <ele>639.40948486328</ele>
        <time>2006-01-21T09:41:04Z</time>
      </trkpt>
      <trkpt lat="45.64152" lon="13.90852">
        <ele>642.305053710937</ele>
        <time>2006-01-21T09:41:26Z</time>
      </trkpt>
      <trkpt lat="45.64163" lon="13.90826">
        <ele>644.712951660157</ele>
        <time>2006-01-21T09:41:48Z</time>
      </trkpt>
      <trkpt lat="45.64165" lon="13.9082">
        <ele>645.170166015624</ele>
        <time>2006-01-21T09:42:03Z</time>
      </trkpt>
      <trkpt lat="45.64171" lon="13.908">
        <ele>645.657836914062</ele>
        <time>2006-01-21T09:42:23Z</time>
      </trkpt>
      <trkpt lat="45.64178" lon="13.90779">
        <ele>646.633178710936</ele>
        <time>2006-01-21T09:42:41Z</time>
      </trkpt>
      <trkpt lat="45.64186" lon="13.90749">
        <ele>648.065734863281</ele>
        <time>2006-01-21T09:43:02Z</time>
      </trkpt>
      <trkpt lat="45.64195" lon="13.90721">
        <ele>649.498291015626</ele>
        <time>2006-01-21T09:43:23Z</time>
      </trkpt>
      <trkpt lat="45.64204" lon="13.90693">
        <ele>650.961364746093</ele>
        <time>2006-01-21T09:43:44Z</time>
      </trkpt>
      <trkpt lat="45.64214" lon="13.90665">
        <ele>653.338806152342</ele>
        <time>2006-01-21T09:44:06Z</time>
      </trkpt>
      <trkpt lat="45.64223" lon="13.90631">
        <ele>654.31414794922</ele>
        <time>2006-01-21T09:44:33Z</time>
      </trkpt>
      <trkpt lat="45.64229" lon="13.90597">
        <ele>654.801879882812</ele>
        <time>2006-01-21T09:44:57Z</time>
      </trkpt>
      <trkpt lat="45.64234" lon="13.90571">
        <ele>655.289489746095</ele>
        <time>2006-01-21T09:45:15Z</time>
      </trkpt>
      <trkpt lat="45.64238" lon="13.90537">
        <ele>654.31414794922</ele>
        <time>2006-01-21T09:45:39Z</time>
      </trkpt>
      <trkpt lat="45.64242" lon="13.90509">
        <ele>654.31414794922</ele>
        <time>2006-01-21T09:46:02Z</time>
      </trkpt>
      <trkpt lat="45.64249" lon="13.90479">
        <ele>653.338806152342</ele>
        <time>2006-01-21T09:46:22Z</time>
      </trkpt>
      <trkpt lat="45.64257" lon="13.90438">
        <ele>653.826538085937</ele>
        <time>2006-01-21T09:46:49Z</time>
      </trkpt>
      <trkpt lat="45.64268" lon="13.90408">
        <ele>653.826538085937</ele>
        <time>2006-01-21T09:47:11Z</time>
      </trkpt>
      <trkpt lat="45.64279" lon="13.90378">
        <ele>654.31414794922</ele>
        <time>2006-01-21T09:47:32Z</time>
      </trkpt>
      <trkpt lat="45.64291" lon="13.90348">
        <ele>655.746704101562</ele>
        <time>2006-01-21T09:47:56Z</time>
      </trkpt>
      <trkpt lat="45.64304" lon="13.90313">
        <ele>656.722106933594</ele>
        <time>2006-01-21T09:48:22Z</time>
      </trkpt>
      <trkpt lat="45.64322" lon="13.90283">
        <ele>657.209716796874</ele>
        <time>2006-01-21T09:48:46Z</time>
      </trkpt>
      <trkpt lat="45.64339" lon="13.90255">
        <ele>657.666931152344</ele>
        <time>2006-01-21T09:49:10Z</time>
      </trkpt>
      <trkpt lat="45.64358" lon="13.90225">
        <ele>660.562561035156</ele>
        <time>2006-01-21T09:49:38Z</time>
      </trkpt>
      <trkpt lat="45.64375" lon="13.90193">
        <ele>663.458129882813</ele>
        <time>2006-01-21T09:50:06Z</time>
      </trkpt>
      <trkpt lat="45.64384" lon="13.9018">
        <ele>664.890686035158</ele>
        <time>2006-01-21T09:50:25Z</time>
      </trkpt>
      <trkpt lat="45.64384" lon="13.90178">
        <ele>664.403076171875</ele>
        <time>2006-01-21T09:50:46Z</time>
      </trkpt>
      <trkpt lat="45.64394" lon="13.90155">
        <ele>667.298645019532</ele>
        <time>2006-01-21T09:51:06Z</time>
      </trkpt>
      <trkpt lat="45.64407" lon="13.90131">
        <ele>669.706542968752</ele>
        <time>2006-01-21T09:51:27Z</time>
      </trkpt>
      <trkpt lat="45.64418" lon="13.90107">
        <ele>670.163757324219</ele>
        <time>2006-01-21T09:51:50Z</time>
      </trkpt>
      <trkpt lat="45.64431" lon="13.90082">
        <ele>671.626770019531</ele>
        <time>2006-01-21T09:52:12Z</time>
      </trkpt>
      <trkpt lat="45.64435" lon="13.90049">
        <ele>672.571716308593</ele>
        <time>2006-01-21T09:52:33Z</time>
      </trkpt>
      <trkpt lat="45.64435" lon="13.90024">
        <ele>673.059326171876</ele>
        <time>2006-01-21T09:52:50Z</time>
      </trkpt>
      <trkpt lat="45.64437" lon="13.90009">
        <ele>673.059326171876</ele>
        <time>2006-01-21T09:53:04Z</time>
      </trkpt>
      <trkpt lat="45.6444" lon="13.90007">
        <ele>673.059326171876</ele>
        <time>2006-01-21T09:53:06Z</time>
      </trkpt>
      <trkpt lat="45.64442" lon="13.90007">
        <ele>672.571716308593</ele>
        <time>2006-01-21T09:53:09Z</time>
      </trkpt>
      <trkpt lat="45.6448" lon="13.89972">
        <ele>669.706542968752</ele>
        <time>2006-01-21T10:24:46Z</time>
      </trkpt>
      <trkpt lat="45.64487" lon="13.89977">
        <ele>667.786315917969</ele>
        <time>2006-01-21T10:24:53Z</time>
      </trkpt>
      <trkpt lat="45.64491" lon="13.89972">
        <ele>666.323303222657</ele>
        <time>2006-01-21T10:25:00Z</time>
      </trkpt>
      <trkpt lat="45.64506" lon="13.89957">
        <ele>665.835571289062</ele>
        <time>2006-01-21T10:25:18Z</time>
      </trkpt>
      <trkpt lat="45.64512" lon="13.89951">
        <ele>665.835571289062</ele>
        <time>2006-01-21T10:25:36Z</time>
      </trkpt>
      <trkpt lat="45.64521" lon="13.89942">
        <ele>664.403076171875</ele>
        <time>2006-01-21T10:25:53Z</time>
      </trkpt>
      <trkpt lat="45.64521" lon="13.89938">
        <ele>664.403076171875</ele>
        <time>2006-01-21T10:26:37Z</time>
      </trkpt>
      <trkpt lat="45.64519" lon="13.89927">
        <ele>664.403076171875</ele>
        <time>2006-01-21T10:26:53Z</time>
      </trkpt>
      <trkpt lat="45.64515" lon="13.8991">
        <ele>661.53790283203</ele>
        <time>2006-01-21T10:27:11Z</time>
      </trkpt>
      <trkpt lat="45.64508" lon="13.89897">
        <ele>658.642272949219</ele>
        <time>2006-01-21T10:27:23Z</time>
      </trkpt>
      <trkpt lat="45.645" lon="13.89886">
        <ele>655.746704101562</ele>
        <time>2006-01-21T10:27:37Z</time>
      </trkpt>
      <trkpt lat="45.64495" lon="13.89884">
        <ele>652.39385986328</ele>
        <time>2006-01-21T10:27:45Z</time>
      </trkpt>
      <trkpt lat="45.64489" lon="13.89878">
        <ele>649.498291015626</ele>
        <time>2006-01-21T10:27:59Z</time>
      </trkpt>
      <trkpt lat="45.64485" lon="13.89867">
        <ele>646.145507812499</ele>
        <time>2006-01-21T10:28:12Z</time>
      </trkpt>
      <trkpt lat="45.64491" lon="13.89848">
        <ele>642.79266357422</ele>
        <time>2006-01-21T10:28:30Z</time>
      </trkpt>
      <trkpt lat="45.645" lon="13.89824">
        <ele>639.897094726563</ele>
        <time>2006-01-21T10:28:49Z</time>
      </trkpt>
      <trkpt lat="45.64512" lon="13.8982">
        <ele>638.464538574218</ele>
        <time>2006-01-21T10:29:05Z</time>
      </trkpt>
      <trkpt lat="45.64523" lon="13.8982">
        <ele>637.001464843749</ele>
        <time>2006-01-21T10:29:23Z</time>
      </trkpt>
      <trkpt lat="45.6454" lon="13.89828">
        <ele>633.648681640624</ele>
        <time>2006-01-21T10:29:41Z</time>
      </trkpt>
      <trkpt lat="45.64545" lon="13.89824">
        <ele>630.2958984375</ele>
        <time>2006-01-21T10:29:54Z</time>
      </trkpt>
      <trkpt lat="45.64549" lon="13.89816">
        <ele>627.400268554689</ele>
        <time>2006-01-21T10:30:03Z</time>
      </trkpt>
      <trkpt lat="45.64558" lon="13.89805">
        <ele>624.504699707032</ele>
        <time>2006-01-21T10:30:19Z</time>
      </trkpt>
      <trkpt lat="45.64566" lon="13.89798">
        <ele>621.151916503907</ele>
        <time>2006-01-21T10:30:36Z</time>
      </trkpt>
      <trkpt lat="45.6457" lon="13.8979">
        <ele>618.25634765625</ele>
        <time>2006-01-21T10:30:46Z</time>
      </trkpt>
      <trkpt lat="45.64577" lon="13.89783">
        <ele>614.903503417969</ele>
        <time>2006-01-21T10:30:57Z</time>
      </trkpt>
      <trkpt lat="45.64577" lon="13.89783">
        <ele>614.903503417969</ele>
        <time>2006-01-21T10:31:10Z</time>
      </trkpt>
      <trkpt lat="45.64583" lon="13.89775">
        <ele>611.550720214844</ele>
        <time>2006-01-21T10:31:12Z</time>
      </trkpt>
      <trkpt lat="45.646" lon="13.89822">
        <ele>611.550720214844</ele>
        <time>2006-01-21T10:31:13Z</time>
      </trkpt>
      <trkpt lat="45.64594" lon="13.89792">
        <ele>611.063049316407</ele>
        <time>2006-01-21T10:31:14Z</time>
      </trkpt>
      <trkpt lat="45.64596" lon="13.89786">
        <ele>612.495605468749</ele>
        <time>2006-01-21T10:31:17Z</time>
      </trkpt>
      <trkpt lat="45.64603" lon="13.89773">
        <ele>610.575317382812</ele>
        <time>2006-01-21T10:31:29Z</time>
      </trkpt>
      <trkpt lat="45.64607" lon="13.8976">
        <ele>607.679748535155</ele>
        <time>2006-01-21T10:31:42Z</time>
      </trkpt>
      <trkpt lat="45.64611" lon="13.89751">
        <ele>604.326965332031</ele>
        <time>2006-01-21T10:31:50Z</time>
      </trkpt>
      <trkpt lat="45.6462" lon="13.89745">
        <ele>601.43133544922</ele>
        <time>2006-01-21T10:32:00Z</time>
      </trkpt>
      <trkpt lat="45.64631" lon="13.8974">
        <ele>598.078552246092</ele>
        <time>2006-01-21T10:32:15Z</time>
      </trkpt>
      <trkpt lat="45.64639" lon="13.89736">
        <ele>594.725769042968</ele>
        <time>2006-01-21T10:32:24Z</time>
      </trkpt>
      <trkpt lat="45.64639" lon="13.89736">
        <ele>594.238098144531</ele>
        <time>2006-01-21T10:32:25Z</time>
      </trkpt>
      <trkpt lat="45.64641" lon="13.89734">
        <ele>593.750427246093</ele>
        <time>2006-01-21T10:32:28Z</time>
      </trkpt>
      <trkpt lat="45.64646" lon="13.89732">
        <ele>592.317871093752</ele>
        <time>2006-01-21T10:32:31Z</time>
      </trkpt>
      <trkpt lat="45.64652" lon="13.8973">
        <ele>590.397583007812</ele>
        <time>2006-01-21T10:32:36Z</time>
      </trkpt>
      <trkpt lat="45.64673" lon="13.89725">
        <ele>587.014343261717</ele>
        <time>2006-01-21T10:32:54Z</time>
      </trkpt>
      <trkpt lat="45.64684" lon="13.89725">
        <ele>583.661499023438</ele>
        <time>2006-01-21T10:33:04Z</time>
      </trkpt>
      <trkpt lat="45.64693" lon="13.89723">
        <ele>580.765930175782</ele>
        <time>2006-01-21T10:33:14Z</time>
      </trkpt>
      <trkpt lat="45.64701" lon="13.89723">
        <ele>577.413146972657</ele>
        <time>2006-01-21T10:33:22Z</time>
      </trkpt>
      <trkpt lat="45.64714" lon="13.89723">
        <ele>575.980529785158</ele>
        <time>2006-01-21T10:33:40Z</time>
      </trkpt>
      <trkpt lat="45.64723" lon="13.8973">
        <ele>575.00518798828</ele>
        <time>2006-01-21T10:34:03Z</time>
      </trkpt>
      <trkpt lat="45.64731" lon="13.89734">
        <ele>575.00518798828</ele>
        <time>2006-01-21T10:34:36Z</time>
      </trkpt>
      <trkpt lat="45.64725" lon="13.8974">
        <ele>575.00518798828</ele>
        <time>2006-01-21T10:34:53Z</time>
      </trkpt>
      <trkpt lat="45.64729" lon="13.89743">
        <ele>574.517517089843</ele>
        <time>2006-01-21T10:35:21Z</time>
      </trkpt>
      <trkpt lat="45.64736" lon="13.89745">
        <ele>572.597290039064</ele>
        <time>2006-01-21T10:35:39Z</time>
      </trkpt>
      <trkpt lat="45.64749" lon="13.8974">
        <ele>572.597290039064</ele>
        <time>2006-01-21T10:36:04Z</time>
      </trkpt>
      <trkpt lat="45.64774" lon="13.89743">
        <ele>569.732116699219</ele>
        <time>2006-01-21T10:36:27Z</time>
      </trkpt>
      <trkpt lat="45.64794" lon="13.89745">
        <ele>566.836547851562</ele>
        <time>2006-01-21T10:36:44Z</time>
      </trkpt>
      <trkpt lat="45.64794" lon="13.89745">
        <ele>566.348876953125</ele>
        <time>2006-01-21T10:36:45Z</time>
      </trkpt>
      <trkpt lat="45.64809" lon="13.89751">
        <ele>562.99609375</ele>
        <time>2006-01-21T10:36:59Z</time>
      </trkpt>
      <trkpt lat="45.64824" lon="13.89749">
        <ele>559.612792968749</ele>
        <time>2006-01-21T10:37:10Z</time>
      </trkpt>
      <trkpt lat="45.64843" lon="13.89753">
        <ele>556.747680664062</ele>
        <time>2006-01-21T10:37:25Z</time>
      </trkpt>
      <trkpt lat="45.64858" lon="13.89758">
        <ele>553.364379882813</ele>
        <time>2006-01-21T10:37:38Z</time>
      </trkpt>
      <trkpt lat="45.64879" lon="13.8973">
        <ele>550.986938476563</ele>
        <time>2006-01-21T10:38:02Z</time>
      </trkpt>
      <trkpt lat="45.64894" lon="13.89717">
        <ele>548.091369628906</ele>
        <time>2006-01-21T10:38:17Z</time>
      </trkpt>
      <trkpt lat="45.6492" lon="13.897">
        <ele>545.683471679687</ele>
        <time>2006-01-21T10:38:40Z</time>
      </trkpt>
      <trkpt lat="45.64937" lon="13.89685">
        <ele>545.195739746095</ele>
        <time>2006-01-21T10:39:00Z</time>
      </trkpt>
      <trkpt lat="45.64952" lon="13.8967">
        <ele>544.250854492187</ele>
        <time>2006-01-21T10:43:12Z</time>
      </trkpt>
      <trkpt lat="45.64955" lon="13.8967">
        <ele>543.76318359375</ele>
        <time>2006-01-21T10:43:32Z</time>
      </trkpt>
      <trkpt lat="45.64961" lon="13.89674">
        <ele>540.867614746093</ele>
        <time>2006-01-21T10:44:12Z</time>
      </trkpt>
      <trkpt lat="45.64965" lon="13.89676">
        <ele>539.922729492188</ele>
        <time>2006-01-21T10:44:16Z</time>
      </trkpt>
      <trkpt lat="45.64974" lon="13.89678">
        <ele>537.027099609374</ele>
        <time>2006-01-21T10:44:24Z</time>
      </trkpt>
      <trkpt lat="45.64976" lon="13.89678">
        <ele>537.027099609374</ele>
        <time>2006-01-21T10:44:25Z</time>
      </trkpt>
      <trkpt lat="45.64985" lon="13.89683">
        <ele>533.67431640625</ele>
        <time>2006-01-21T10:44:34Z</time>
      </trkpt>
      <trkpt lat="45.64997" lon="13.89689">
        <ele>530.291076660155</ele>
        <time>2006-01-21T10:44:48Z</time>
      </trkpt>
      <trkpt lat="45.65004" lon="13.89693">
        <ele>528.858459472656</ele>
        <time>2006-01-21T10:45:03Z</time>
      </trkpt>
      <trkpt lat="45.65012" lon="13.89691">
        <ele>525.505676269532</ele>
        <time>2006-01-21T10:45:17Z</time>
      </trkpt>
      <trkpt lat="45.65021" lon="13.89698">
        <ele>522.61004638672</ele>
        <time>2006-01-21T10:45:32Z</time>
      </trkpt>
      <trkpt lat="45.65032" lon="13.89695">
        <ele>519.257263183593</ele>
        <time>2006-01-21T10:45:46Z</time>
      </trkpt>
      <trkpt lat="45.65042" lon="13.897">
        <ele>516.361694335939</ele>
        <time>2006-01-21T10:46:02Z</time>
      </trkpt>
      <trkpt lat="45.65055" lon="13.89698">
        <ele>513.496520996094</ele>
        <time>2006-01-21T10:46:16Z</time>
      </trkpt>
      <trkpt lat="45.6506" lon="13.89698">
        <ele>511.545867919921</ele>
        <time>2006-01-21T10:46:22Z</time>
      </trkpt>
      <trkpt lat="45.65079" lon="13.89702">
        <ele>508.680725097655</ele>
        <time>2006-01-21T10:46:43Z</time>
      </trkpt>
      <trkpt lat="45.6509" lon="13.89715">
        <ele>504.840240478515</ele>
        <time>2006-01-21T10:46:58Z</time>
      </trkpt>
      <trkpt lat="45.65103" lon="13.8973">
        <ele>502.432342529298</ele>
        <time>2006-01-21T10:47:15Z</time>
      </trkpt>
      <trkpt lat="45.65103" lon="13.8973">
        <ele>502.432342529298</ele>
        <time>2006-01-21T10:47:16Z</time>
      </trkpt>
      <trkpt lat="45.65122" lon="13.89736">
        <ele>498.591857910158</ele>
        <time>2006-01-21T10:47:35Z</time>
      </trkpt>
      <trkpt lat="45.65139" lon="13.8974">
        <ele>495.208557128906</ele>
        <time>2006-01-21T10:47:54Z</time>
      </trkpt>
      <trkpt lat="45.65143" lon="13.8974">
        <ele>494.720886230469</ele>
        <time>2006-01-21T10:47:58Z</time>
      </trkpt>
      <trkpt lat="45.65158" lon="13.89734">
        <ele>490.423187255858</ele>
        <time>2006-01-21T10:48:16Z</time>
      </trkpt>
      <trkpt lat="45.65176" lon="13.89734">
        <ele>487.039916992188</ele>
        <time>2006-01-21T10:48:35Z</time>
      </trkpt>
      <trkpt lat="45.65199" lon="13.8973">
        <ele>485.119659423827</ele>
        <time>2006-01-21T10:48:59Z</time>
      </trkpt>
      <trkpt lat="45.65208" lon="13.8971">
        <ele>483.687133789064</ele>
        <time>2006-01-21T10:49:17Z</time>
      </trkpt>
      <trkpt lat="45.65212" lon="13.89693">
        <ele>482.711730957032</ele>
        <time>2006-01-21T10:49:35Z</time>
      </trkpt>
      <trkpt lat="45.65223" lon="13.89668">
        <ele>480.303863525391</ele>
        <time>2006-01-21T10:49:57Z</time>
      </trkpt>
      <trkpt lat="45.65231" lon="13.89655">
        <ele>478.87127685547</ele>
        <time>2006-01-21T10:50:14Z</time>
      </trkpt>
      <trkpt lat="45.65253" lon="13.89629">
        <ele>476.951049804688</ele>
        <time>2006-01-21T10:50:39Z</time>
      </trkpt>
      <trkpt lat="45.65261" lon="13.89605">
        <ele>475.975677490234</ele>
        <time>2006-01-21T10:50:58Z</time>
      </trkpt>
      <trkpt lat="45.6527" lon="13.89584">
        <ele>472.622863769531</ele>
        <time>2006-01-21T10:51:15Z</time>
      </trkpt>
      <trkpt lat="45.65274" lon="13.89582">
        <ele>471.190338134765</ele>
        <time>2006-01-21T10:51:41Z</time>
      </trkpt>
      <trkpt lat="45.65287" lon="13.8958">
        <ele>468.294738769532</ele>
        <time>2006-01-21T10:53:16Z</time>
      </trkpt>
      <trkpt lat="45.65304" lon="13.89571">
        <ele>464.941925048829</ele>
        <time>2006-01-21T10:53:36Z</time>
      </trkpt>
      <trkpt lat="45.65317" lon="13.89567">
        <ele>463.021667480468</ele>
        <time>2006-01-21T10:54:02Z</time>
      </trkpt>
      <trkpt lat="45.65324" lon="13.89565">
        <ele>461.558654785156</ele>
        <time>2006-01-21T10:54:09Z</time>
      </trkpt>
      <trkpt lat="45.65339" lon="13.8956">
        <ele>459.638397216798</ele>
        <time>2006-01-21T10:54:24Z</time>
      </trkpt>
      <trkpt lat="45.65345" lon="13.8956">
        <ele>459.181213378906</ele>
        <time>2006-01-21T10:54:44Z</time>
      </trkpt>
      <trkpt lat="45.6536" lon="13.89556">
        <ele>457.718139648437</ele>
        <time>2006-01-21T10:55:10Z</time>
      </trkpt>
      <trkpt lat="45.65371" lon="13.89552">
        <ele>454.365356445313</ele>
        <time>2006-01-21T10:55:24Z</time>
      </trkpt>
      <trkpt lat="45.65384" lon="13.89549">
        <ele>452.44512939453</ele>
        <time>2006-01-21T10:55:37Z</time>
      </trkpt>
      <trkpt lat="45.65418" lon="13.89541">
        <ele>449.06185913086</ele>
        <time>2006-01-21T10:56:06Z</time>
      </trkpt>
      <trkpt lat="45.6542" lon="13.89539">
        <ele>448.60464477539</ele>
        <time>2006-01-21T10:56:09Z</time>
      </trkpt>
      <trkpt lat="45.65431" lon="13.89524">
        <ele>447.141601562499</ele>
        <time>2006-01-21T10:56:30Z</time>
      </trkpt>
      <trkpt lat="45.65446" lon="13.89504">
        <ele>443.301116943359</ele>
        <time>2006-01-21T10:56:48Z</time>
      </trkpt>
      <trkpt lat="45.65446" lon="13.89504">
        <ele>443.788787841796</ele>
        <time>2006-01-21T10:56:49Z</time>
      </trkpt>
      <trkpt lat="45.65461" lon="13.89487">
        <ele>440.893188476564</ele>
        <time>2006-01-21T10:57:09Z</time>
      </trkpt>
      <trkpt lat="45.65476" lon="13.8947">
        <ele>437.540405273436</ele>
        <time>2006-01-21T10:57:28Z</time>
      </trkpt>
      <trkpt lat="45.65495" lon="13.89453">
        <ele>434.187591552733</ele>
        <time>2006-01-21T10:57:48Z</time>
      </trkpt>
      <trkpt lat="45.65512" lon="13.89436">
        <ele>433.212249755859</ele>
        <time>2006-01-21T10:58:08Z</time>
      </trkpt>
      <trkpt lat="45.65525" lon="13.89423">
        <ele>432.236877441405</ele>
        <time>2006-01-21T10:58:26Z</time>
      </trkpt>
      <trkpt lat="45.65525" lon="13.89423">
        <ele>429.371734619139</ele>
        <time>2006-01-21T10:58:27Z</time>
      </trkpt>
      <trkpt lat="45.65525" lon="13.89423">
        <ele>432.236877441405</ele>
        <time>2006-01-21T10:58:34Z</time>
      </trkpt>
      <trkpt lat="45.65527" lon="13.89416">
        <ele>431.2919921875</ele>
        <time>2006-01-21T11:00:12Z</time>
      </trkpt>
      <trkpt lat="45.6553" lon="13.89419">
        <ele>432.236877441405</ele>
        <time>2006-01-21T11:00:39Z</time>
      </trkpt>
      <trkpt lat="45.65534" lon="13.89408">
        <ele>431.2919921875</ele>
        <time>2006-01-21T11:02:21Z</time>
      </trkpt>
      <trkpt lat="45.65549" lon="13.89384">
        <ele>429.859466552734</ele>
        <time>2006-01-21T11:02:43Z</time>
      </trkpt>
      <trkpt lat="45.65564" lon="13.89369">
        <ele>426.963867187499</ele>
        <time>2006-01-21T11:02:59Z</time>
      </trkpt>
      <trkpt lat="45.65588" lon="13.89346">
        <ele>425.531280517578</ele>
        <time>2006-01-21T11:03:26Z</time>
      </trkpt>
      <trkpt lat="45.65607" lon="13.89339">
        <ele>423.123352050782</ele>
        <time>2006-01-21T11:03:48Z</time>
      </trkpt>
      <trkpt lat="45.65635" lon="13.89344">
        <ele>422.148010253905</ele>
        <time>2006-01-21T11:04:15Z</time>
      </trkpt>
      <trkpt lat="45.65663" lon="13.89344">
        <ele>420.227752685547</ele>
        <time>2006-01-21T11:04:46Z</time>
      </trkpt>
      <trkpt lat="45.65691" lon="13.89341">
        <ele>419.282867431639</ele>
        <time>2006-01-21T11:05:07Z</time>
      </trkpt>
      <trkpt lat="45.65714" lon="13.89344">
        <ele>419.74008178711</ele>
        <time>2006-01-21T11:05:28Z</time>
      </trkpt>
      <trkpt lat="45.65738" lon="13.89337">
        <ele>419.282867431639</ele>
        <time>2006-01-21T11:05:47Z</time>
      </trkpt>
      <trkpt lat="45.65751" lon="13.89328">
        <ele>418.795196533202</ele>
        <time>2006-01-21T11:06:00Z</time>
      </trkpt>
      <trkpt lat="45.65755" lon="13.89326">
        <ele>419.74008178711</ele>
        <time>2006-01-21T11:06:05Z</time>
      </trkpt>
      <trkpt lat="45.65757" lon="13.89324">
        <ele>418.795196533202</ele>
        <time>2006-01-21T11:06:07Z</time>
      </trkpt>
      <trkpt lat="45.65761" lon="13.89316">
        <ele>418.795196533202</ele>
        <time>2006-01-21T11:06:13Z</time>
      </trkpt>
      <trkpt lat="45.65766" lon="13.89309">
        <ele>418.795196533202</ele>
        <time>2006-01-21T11:06:19Z</time>
      </trkpt>
      <trkpt lat="45.65776" lon="13.89288">
        <ele>417.819854736327</ele>
        <time>2006-01-21T11:06:36Z</time>
      </trkpt>
      <trkpt lat="45.65787" lon="13.89271">
        <ele>417.819854736327</ele>
        <time>2006-01-21T11:06:53Z</time>
      </trkpt>
      <trkpt lat="45.658" lon="13.89253">
        <ele>418.307525634764</ele>
        <time>2006-01-21T11:07:11Z</time>
      </trkpt>
      <trkpt lat="45.65817" lon="13.8923">
        <ele>417.36264038086</ele>
        <time>2006-01-21T11:07:32Z</time>
      </trkpt>
      <trkpt lat="45.65824" lon="13.89219">
        <ele>414.467041015624</ele>
        <time>2006-01-21T11:07:42Z</time>
      </trkpt>
      <trkpt lat="45.65826" lon="13.89219">
        <ele>421.660339355468</ele>
        <time>2006-01-21T11:07:43Z</time>
      </trkpt>
      <trkpt lat="45.65826" lon="13.89217">
        <ele>416.874938964844</ele>
        <time>2006-01-21T11:07:44Z</time>
      </trkpt>
      <trkpt lat="45.65828" lon="13.8921">
        <ele>417.36264038086</ele>
        <time>2006-01-21T11:08:01Z</time>
      </trkpt>
      <trkpt lat="45.6583" lon="13.89206">
        <ele>416.874938964844</ele>
        <time>2006-01-21T11:08:14Z</time>
      </trkpt>
      <trkpt lat="45.65841" lon="13.89189">
        <ele>416.387268066406</ele>
        <time>2006-01-21T11:08:30Z</time>
      </trkpt>
      <trkpt lat="45.6586" lon="13.8917">
        <ele>416.387268066406</ele>
        <time>2006-01-21T11:08:51Z</time>
      </trkpt>
      <trkpt lat="45.65879" lon="13.89144">
        <ele>415.411926269532</ele>
        <time>2006-01-21T11:09:13Z</time>
      </trkpt>
      <trkpt lat="45.65905" lon="13.89118">
        <ele>414.467041015624</ele>
        <time>2006-01-21T11:09:37Z</time>
      </trkpt>
      <trkpt lat="45.65927" lon="13.89088">
        <ele>415.411926269532</ele>
        <time>2006-01-21T11:10:00Z</time>
      </trkpt>
      <trkpt lat="45.65952" lon="13.89056">
        <ele>414.95474243164</ele>
        <time>2006-01-21T11:10:25Z</time>
      </trkpt>
      <trkpt lat="45.66021" lon="13.89077">
        <ele>414.95474243164</ele>
        <time>2006-01-21T11:20:38Z</time>
      </trkpt>
      <trkpt lat="45.66034" lon="13.89099">
        <ele>414.95474243164</ele>
        <time>2006-01-21T11:20:59Z</time>
      </trkpt>
      <trkpt lat="45.66049" lon="13.89118">
        <ele>415.411926269532</ele>
        <time>2006-01-21T11:21:21Z</time>
      </trkpt>
      <trkpt lat="45.66068" lon="13.89133">
        <ele>413.979339599608</ele>
        <time>2006-01-21T11:21:42Z</time>
      </trkpt>
      <trkpt lat="45.661" lon="13.89146">
        <ele>412.059112548829</ele>
        <time>2006-01-21T11:22:12Z</time>
      </trkpt>
      <trkpt lat="45.66118" lon="13.89148">
        <ele>411.571441650392</ele>
        <time>2006-01-21T11:22:30Z</time>
      </trkpt>
      <trkpt lat="45.66143" lon="13.89161">
        <ele>411.571441650392</ele>
        <time>2006-01-21T11:22:54Z</time>
      </trkpt>
      <trkpt lat="45.66165" lon="13.8918">
        <ele>411.1142578125</ele>
        <time>2006-01-21T11:23:16Z</time>
      </trkpt>
      <trkpt lat="45.66182" lon="13.892">
        <ele>410.626556396484</ele>
        <time>2006-01-21T11:23:35Z</time>
      </trkpt>
      <trkpt lat="45.66195" lon="13.89221">
        <ele>411.571441650392</ele>
        <time>2006-01-21T11:23:54Z</time>
      </trkpt>
      <trkpt lat="45.66214" lon="13.89245">
        <ele>410.138885498046</ele>
        <time>2006-01-21T11:24:16Z</time>
      </trkpt>
      <trkpt lat="45.66225" lon="13.89256">
        <ele>410.138885498046</ele>
        <time>2006-01-21T11:24:29Z</time>
      </trkpt>
      <trkpt lat="45.6624" lon="13.89275">
        <ele>410.626556396484</ele>
        <time>2006-01-21T11:24:49Z</time>
      </trkpt>
      <trkpt lat="45.66248" lon="13.89283">
        <ele>410.138885498046</ele>
        <time>2006-01-21T11:25:04Z</time>
      </trkpt>
      <trkpt lat="45.66263" lon="13.89296">
        <ele>410.138885498046</ele>
        <time>2006-01-21T11:25:24Z</time>
      </trkpt>
      <trkpt lat="45.66281" lon="13.89309">
        <ele>411.1142578125</ele>
        <time>2006-01-21T11:25:43Z</time>
      </trkpt>
      <trkpt lat="45.66302" lon="13.89322">
        <ele>412.059112548829</ele>
        <time>2006-01-21T11:26:05Z</time>
      </trkpt>
      <trkpt lat="45.66321" lon="13.89326">
        <ele>413.034484863282</ele>
        <time>2006-01-21T11:26:25Z</time>
      </trkpt>
      <trkpt lat="45.6633" lon="13.89331">
        <ele>413.491668701171</ele>
        <time>2006-01-21T11:26:35Z</time>
      </trkpt>
      <trkpt lat="45.66349" lon="13.89346">
        <ele>414.95474243164</ele>
        <time>2006-01-21T11:26:58Z</time>
      </trkpt>
      <trkpt lat="45.66369" lon="13.89367">
        <ele>415.899597167969</ele>
        <time>2006-01-21T11:27:23Z</time>
      </trkpt>
      <trkpt lat="45.6639" lon="13.89382">
        <ele>416.874938964844</ele>
        <time>2006-01-21T11:27:50Z</time>
      </trkpt>
      <trkpt lat="45.66401" lon="13.89386">
        <ele>417.819854736327</ele>
        <time>2006-01-21T11:28:21Z</time>
      </trkpt>
      <trkpt lat="45.66416" lon="13.89395">
        <ele>417.36264038086</ele>
        <time>2006-01-21T11:28:44Z</time>
      </trkpt>
      <trkpt lat="45.66433" lon="13.89408">
        <ele>417.36264038086</ele>
        <time>2006-01-21T11:29:02Z</time>
      </trkpt>
      <trkpt lat="45.66452" lon="13.89421">
        <ele>416.387268066406</ele>
        <time>2006-01-21T11:29:22Z</time>
      </trkpt>
      <trkpt lat="45.66474" lon="13.89429">
        <ele>415.899597167969</ele>
        <time>2006-01-21T11:29:44Z</time>
      </trkpt>
      <trkpt lat="45.66474" lon="13.89431">
        <ele>415.411926269532</ele>
        <time>2006-01-21T11:29:45Z</time>
      </trkpt>
      <trkpt lat="45.66491" lon="13.89457">
        <ele>412.059112548829</ele>
        <time>2006-01-21T11:34:32Z</time>
      </trkpt>
      <trkpt lat="45.66497" lon="13.8947">
        <ele>410.138885498046</ele>
        <time>2006-01-21T11:34:47Z</time>
      </trkpt>
      <trkpt lat="45.66506" lon="13.89487">
        <ele>409.651214599609</ele>
        <time>2006-01-21T11:35:05Z</time>
      </trkpt>
      <trkpt lat="45.66512" lon="13.89507">
        <ele>409.163513183593</ele>
        <time>2006-01-21T11:35:22Z</time>
      </trkpt>
      <trkpt lat="45.66523" lon="13.8953">
        <ele>408.706329345704</ele>
        <time>2006-01-21T11:35:44Z</time>
      </trkpt>
      <trkpt lat="45.66527" lon="13.89556">
        <ele>407.243286132814</ele>
        <time>2006-01-21T11:36:03Z</time>
      </trkpt>
      <trkpt lat="45.66536" lon="13.8959">
        <ele>406.786071777343</ele>
        <time>2006-01-21T11:40:09Z</time>
      </trkpt>
      <trkpt lat="45.66549" lon="13.89605">
        <ele>407.243286132814</ele>
        <time>2006-01-21T11:40:29Z</time>
      </trkpt>
      <trkpt lat="45.66549" lon="13.89605">
        <ele>406.786071777343</ele>
        <time>2006-01-21T11:40:30Z</time>
      </trkpt>
      <trkpt lat="45.66575" lon="13.8959">
        <ele>407.730957031251</ele>
        <time>2006-01-21T11:40:55Z</time>
      </trkpt>
      <trkpt lat="45.66605" lon="13.89577">
        <ele>405.810729980469</ele>
        <time>2006-01-21T11:41:24Z</time>
      </trkpt>
      <trkpt lat="45.66622" lon="13.89573">
        <ele>405.810729980469</ele>
        <time>2006-01-21T11:41:38Z</time>
      </trkpt>
      <trkpt lat="45.6663" lon="13.8958">
        <ele>405.323059082032</ele>
        <time>2006-01-21T11:41:46Z</time>
      </trkpt>
      <trkpt lat="45.66652" lon="13.89575">
        <ele>404.378143310548</ele>
        <time>2006-01-21T11:42:05Z</time>
      </trkpt>
      <trkpt lat="45.66671" lon="13.89592">
        <ele>402.915130615233</ele>
        <time>2006-01-21T11:42:25Z</time>
      </trkpt>
      <trkpt lat="45.66682" lon="13.89601">
        <ele>403.402801513673</ele>
        <time>2006-01-21T11:42:37Z</time>
      </trkpt>
      <trkpt lat="45.6669" lon="13.89614">
        <ele>403.402801513673</ele>
        <time>2006-01-21T11:42:53Z</time>
      </trkpt>
      <trkpt lat="45.66705" lon="13.89625">
        <ele>404.378143310548</ele>
        <time>2006-01-21T11:43:12Z</time>
      </trkpt>
      <trkpt lat="45.66716" lon="13.89629">
        <ele>403.890472412111</ele>
        <time>2006-01-21T11:43:29Z</time>
      </trkpt>
      <trkpt lat="45.66716" lon="13.89633">
        <ele>404.378143310548</ele>
        <time>2006-01-21T11:43:34Z</time>
      </trkpt>
      <trkpt lat="45.66714" lon="13.89646">
        <ele>404.865844726561</ele>
        <time>2006-01-21T11:43:51Z</time>
      </trkpt>
      <trkpt lat="45.6671" lon="13.8965">
        <ele>405.323059082032</ele>
        <time>2006-01-21T11:43:58Z</time>
      </trkpt>
      <trkpt lat="45.66701" lon="13.8967">
        <ele>405.323059082032</ele>
        <time>2006-01-21T11:44:16Z</time>
      </trkpt>
      <trkpt lat="45.66695" lon="13.89683">
        <ele>406.786071777343</ele>
        <time>2006-01-21T11:44:28Z</time>
      </trkpt>
      <trkpt lat="45.6669" lon="13.89708">
        <ele>407.243286132814</ele>
        <time>2006-01-21T11:44:48Z</time>
      </trkpt>
      <trkpt lat="45.6669" lon="13.89725">
        <ele>408.706329345704</ele>
        <time>2006-01-21T11:45:02Z</time>
      </trkpt>
      <trkpt lat="45.6669" lon="13.89745">
        <ele>406.786071777343</ele>
        <time>2006-01-21T11:45:18Z</time>
      </trkpt>
      <trkpt lat="45.6669" lon="13.89747">
        <ele>409.163513183593</ele>
        <time>2006-01-21T11:45:20Z</time>
      </trkpt>
      <trkpt lat="45.6669" lon="13.89779">
        <ele>409.163513183593</ele>
        <time>2006-01-21T11:45:43Z</time>
      </trkpt>
      <trkpt lat="45.66693" lon="13.89807">
        <ele>410.138885498046</ele>
        <time>2006-01-21T11:46:03Z</time>
      </trkpt>
      <trkpt lat="45.66682" lon="13.89869">
        <ele>410.626556396484</ele>
        <time>2006-01-21T11:48:23Z</time>
      </trkpt>
      <trkpt lat="45.66675" lon="13.89891">
        <ele>412.059112548829</ele>
        <time>2006-01-21T11:48:42Z</time>
      </trkpt>
      <trkpt lat="45.66667" lon="13.89914">
        <ele>412.059112548829</ele>
        <time>2006-01-21T11:49:00Z</time>
      </trkpt>
      <trkpt lat="45.66658" lon="13.89938">
        <ele>413.034484863282</ele>
        <time>2006-01-21T11:49:20Z</time>
      </trkpt>
      <trkpt lat="45.66652" lon="13.89957">
        <ele>413.979339599608</ele>
        <time>2006-01-21T11:49:37Z</time>
      </trkpt>
      <trkpt lat="45.66645" lon="13.89979">
        <ele>414.467041015624</ele>
        <time>2006-01-21T11:49:57Z</time>
      </trkpt>
      <trkpt lat="45.66641" lon="13.89998">
        <ele>414.95474243164</ele>
        <time>2006-01-21T11:50:13Z</time>
      </trkpt>
      <trkpt lat="45.66635" lon="13.90026">
        <ele>415.411926269532</ele>
        <time>2006-01-21T11:50:35Z</time>
      </trkpt>
      <trkpt lat="45.66633" lon="13.90041">
        <ele>414.95474243164</ele>
        <time>2006-01-21T11:50:48Z</time>
      </trkpt>
      <trkpt lat="45.66635" lon="13.90045">
        <ele>418.795196533202</ele>
        <time>2006-01-21T11:50:52Z</time>
      </trkpt>
      <trkpt lat="45.66633" lon="13.90049">
        <ele>415.411926269532</ele>
        <time>2006-01-21T11:50:55Z</time>
      </trkpt>
      <trkpt lat="45.66622" lon="13.90092">
        <ele>414.95474243164</ele>
        <time>2006-01-21T11:51:28Z</time>
      </trkpt>
      <trkpt lat="45.6662" lon="13.9011">
        <ele>413.491668701171</ele>
        <time>2006-01-21T11:51:40Z</time>
      </trkpt>
      <trkpt lat="45.6662" lon="13.9011">
        <ele>416.874938964844</ele>
        <time>2006-01-21T11:51:41Z</time>
      </trkpt>
      <trkpt lat="45.66617" lon="13.90112">
        <ele>415.899597167969</ele>
        <time>2006-01-21T11:51:42Z</time>
      </trkpt>
      <trkpt lat="45.6662" lon="13.90114">
        <ele>415.411926269532</ele>
        <time>2006-01-21T11:51:44Z</time>
      </trkpt>
      <trkpt lat="45.66617" lon="13.90118">
        <ele>416.874938964844</ele>
        <time>2006-01-21T11:51:47Z</time>
      </trkpt>
      <trkpt lat="45.66607" lon="13.90146">
        <ele>415.899597167969</ele>
        <time>2006-01-21T11:52:16Z</time>
      </trkpt>
      <trkpt lat="45.66602" lon="13.9015">
        <ele>415.899597167969</ele>
        <time>2006-01-21T11:52:58Z</time>
      </trkpt>
      <trkpt lat="45.66598" lon="13.90172">
        <ele>416.387268066406</ele>
        <time>2006-01-21T11:53:28Z</time>
      </trkpt>
      <trkpt lat="45.66592" lon="13.90185">
        <ele>415.411926269532</ele>
        <time>2006-01-21T11:53:37Z</time>
      </trkpt>
      <trkpt lat="45.6659" lon="13.90189">
        <ele>416.387268066406</ele>
        <time>2006-01-21T11:53:41Z</time>
      </trkpt>
      <trkpt lat="45.66581" lon="13.90223">
        <ele>416.387268066406</ele>
        <time>2006-01-21T11:54:03Z</time>
      </trkpt>
      <trkpt lat="45.66579" lon="13.90258">
        <ele>416.387268066406</ele>
        <time>2006-01-21T11:54:25Z</time>
      </trkpt>
      <trkpt lat="45.66577" lon="13.90288">
        <ele>416.874938964844</ele>
        <time>2006-01-21T11:54:44Z</time>
      </trkpt>
      <trkpt lat="45.66575" lon="13.90311">
        <ele>417.36264038086</ele>
        <time>2006-01-21T11:54:59Z</time>
      </trkpt>
      <trkpt lat="45.66575" lon="13.90324">
        <ele>418.307525634764</ele>
        <time>2006-01-21T11:55:13Z</time>
      </trkpt>
      <trkpt lat="45.66572" lon="13.90358">
        <ele>417.819854736327</ele>
        <time>2006-01-21T11:55:35Z</time>
      </trkpt>
      <trkpt lat="45.66587" lon="13.90378">
        <ele>417.36264038086</ele>
        <time>2006-01-21T11:55:55Z</time>
      </trkpt>
      <trkpt lat="45.66602" lon="13.90397">
        <ele>417.819854736327</ele>
        <time>2006-01-21T11:56:15Z</time>
      </trkpt>
      <trkpt lat="45.6662" lon="13.90421">
        <ele>418.795196533202</ele>
        <time>2006-01-21T11:56:36Z</time>
      </trkpt>
      <trkpt lat="45.6663" lon="13.90444">
        <ele>418.307525634764</ele>
        <time>2006-01-21T11:56:56Z</time>
      </trkpt>
      <trkpt lat="45.66641" lon="13.90472">
        <ele>418.307525634764</ele>
        <time>2006-01-21T11:57:18Z</time>
      </trkpt>
      <trkpt lat="45.66654" lon="13.90504">
        <ele>418.307525634764</ele>
        <time>2006-01-21T11:57:45Z</time>
      </trkpt>
      <trkpt lat="45.66665" lon="13.90537">
        <ele>418.307525634764</ele>
        <time>2006-01-21T11:58:09Z</time>
      </trkpt>
      <trkpt lat="45.66665" lon="13.90547">
        <ele>418.307525634764</ele>
        <time>2006-01-21T11:58:15Z</time>
      </trkpt>
      <trkpt lat="45.66667" lon="13.90571">
        <ele>418.795196533202</ele>
        <time>2006-01-21T11:58:34Z</time>
      </trkpt>
      <trkpt lat="45.66669" lon="13.90592">
        <ele>420.227752685547</ele>
        <time>2006-01-21T11:58:52Z</time>
      </trkpt>
      <trkpt lat="45.66667" lon="13.90627">
        <ele>419.74008178711</ele>
        <time>2006-01-21T11:59:15Z</time>
      </trkpt>
      <trkpt lat="45.66678" lon="13.90646">
        <ele>419.74008178711</ele>
        <time>2006-01-21T11:59:34Z</time>
      </trkpt>
      <trkpt lat="45.66678" lon="13.90657">
        <ele>420.227752685547</ele>
        <time>2006-01-21T11:59:59Z</time>
      </trkpt>
      <trkpt lat="45.66688" lon="13.9067">
        <ele>420.715454101563</ele>
        <time>2006-01-21T12:00:18Z</time>
      </trkpt>
      <trkpt lat="45.66688" lon="13.90672">
        <ele>420.715454101563</ele>
        <time>2006-01-21T12:00:38Z</time>
      </trkpt>
      <trkpt lat="45.66699" lon="13.90685">
        <ele>420.715454101563</ele>
        <time>2006-01-21T12:01:12Z</time>
      </trkpt>
      <trkpt lat="45.66701" lon="13.90695">
        <ele>420.227752685547</ele>
        <time>2006-01-21T12:01:23Z</time>
      </trkpt>
      <trkpt lat="45.66708" lon="13.9073">
        <ele>421.660339355468</ele>
        <time>2006-01-21T12:01:46Z</time>
      </trkpt>
      <trkpt lat="45.66712" lon="13.90755">
        <ele>423.123352050782</ele>
        <time>2006-01-21T12:02:06Z</time>
      </trkpt>
      <trkpt lat="45.66716" lon="13.90781">
        <ele>424.068267822266</ele>
        <time>2006-01-21T12:02:26Z</time>
      </trkpt>
      <trkpt lat="45.6672" lon="13.90803">
        <ele>425.531280517578</ele>
        <time>2006-01-21T12:02:45Z</time>
      </trkpt>
      <trkpt lat="45.66725" lon="13.9082">
        <ele>425.043609619141</ele>
        <time>2006-01-21T12:02:58Z</time>
      </trkpt>
      <trkpt lat="45.66736" lon="13.90854">
        <ele>425.531280517578</ele>
        <time>2006-01-21T12:03:23Z</time>
      </trkpt>
      <trkpt lat="45.66744" lon="13.90884">
        <ele>425.531280517578</ele>
        <time>2006-01-21T12:03:46Z</time>
      </trkpt>
      <trkpt lat="45.66751" lon="13.90912">
        <ele>425.531280517578</ele>
        <time>2006-01-21T12:04:05Z</time>
      </trkpt>
      <trkpt lat="45.66759" lon="13.9094">
        <ele>425.531280517578</ele>
        <time>2006-01-21T12:04:25Z</time>
      </trkpt>
      <trkpt lat="45.66759" lon="13.90944">
        <ele>425.043609619141</ele>
        <time>2006-01-21T12:04:44Z</time>
      </trkpt>
      <trkpt lat="45.66763" lon="13.90942">
        <ele>425.043609619141</ele>
        <time>2006-01-21T12:05:40Z</time>
      </trkpt>
      <trkpt lat="45.66763" lon="13.90946">
        <ele>425.531280517578</ele>
        <time>2006-01-21T12:06:04Z</time>
      </trkpt>
      <trkpt lat="45.66763" lon="13.90953">
        <ele>421.660339355468</ele>
        <time>2006-01-21T12:06:09Z</time>
      </trkpt>
      <trkpt lat="45.66763" lon="13.90953">
        <ele>425.98846435547</ele>
        <time>2006-01-21T12:06:10Z</time>
      </trkpt>
      <trkpt lat="45.66763" lon="13.90955">
        <ele>426.963867187499</ele>
        <time>2006-01-21T12:06:12Z</time>
      </trkpt>
      <trkpt lat="45.66763" lon="13.90959">
        <ele>425.531280517578</ele>
        <time>2006-01-21T12:06:15Z</time>
      </trkpt>
      <trkpt lat="45.66763" lon="13.90959">
        <ele>428.396392822265</ele>
        <time>2006-01-21T12:06:16Z</time>
      </trkpt>
      <trkpt lat="45.66763" lon="13.90961">
        <ele>427.451538085939</ele>
        <time>2006-01-21T12:06:17Z</time>
      </trkpt>
      <trkpt lat="45.66768" lon="13.90983">
        <ele>426.963867187499</ele>
        <time>2006-01-21T12:06:36Z</time>
      </trkpt>
      <trkpt lat="45.6677" lon="13.90991">
        <ele>426.963867187499</ele>
        <time>2006-01-21T12:06:54Z</time>
      </trkpt>
      <trkpt lat="45.6677" lon="13.90996">
        <ele>425.98846435547</ele>
        <time>2006-01-21T12:07:37Z</time>
      </trkpt>
      <trkpt lat="45.6677" lon="13.90991">
        <ele>425.98846435547</ele>
        <time>2006-01-21T12:07:43Z</time>
      </trkpt>
      <trkpt lat="45.66774" lon="13.90985">
        <ele>426.476135253907</ele>
        <time>2006-01-21T12:08:01Z</time>
      </trkpt>
      <trkpt lat="45.66774" lon="13.90983">
        <ele>426.963867187499</ele>
        <time>2006-01-21T12:08:35Z</time>
      </trkpt>
      <trkpt lat="45.66772" lon="13.91002">
        <ele>426.476135253907</ele>
        <time>2006-01-21T12:08:53Z</time>
      </trkpt>
      <trkpt lat="45.66772" lon="13.91006">
        <ele>426.963867187499</ele>
        <time>2006-01-21T12:08:56Z</time>
      </trkpt>
      <trkpt lat="45.66776" lon="13.91043">
        <ele>427.451538085939</ele>
        <time>2006-01-21T12:09:21Z</time>
      </trkpt>
      <trkpt lat="45.66774" lon="13.91067">
        <ele>427.451538085939</ele>
        <time>2006-01-21T12:09:42Z</time>
      </trkpt>
      <trkpt lat="45.6677" lon="13.91075">
        <ele>427.908721923828</ele>
        <time>2006-01-21T12:10:00Z</time>
      </trkpt>
      <trkpt lat="45.66768" lon="13.91079">
        <ele>427.451538085939</ele>
        <time>2006-01-21T12:10:13Z</time>
      </trkpt>
      <trkpt lat="45.6677" lon="13.91084">
        <ele>427.451538085939</ele>
        <time>2006-01-21T12:10:26Z</time>
      </trkpt>
      <trkpt lat="45.6677" lon="13.91086">
        <ele>427.908721923828</ele>
        <time>2006-01-21T12:11:00Z</time>
      </trkpt>
      <trkpt lat="45.66766" lon="13.91097">
        <ele>427.908721923828</ele>
        <time>2006-01-21T12:11:10Z</time>
      </trkpt>
      <trkpt lat="45.66755" lon="13.91129">
        <ele>428.396392822265</ele>
        <time>2006-01-21T12:11:33Z</time>
      </trkpt>
      <trkpt lat="45.66748" lon="13.91159">
        <ele>428.396392822265</ele>
        <time>2006-01-21T12:11:55Z</time>
      </trkpt>
      <trkpt lat="45.66742" lon="13.9118">
        <ele>428.396392822265</ele>
        <time>2006-01-21T12:12:11Z</time>
      </trkpt>
      <trkpt lat="45.66729" lon="13.91217">
        <ele>427.451538085939</ele>
        <time>2006-01-21T12:12:35Z</time>
      </trkpt>
      <trkpt lat="45.66718" lon="13.91249">
        <ele>426.963867187499</ele>
        <time>2006-01-21T12:12:57Z</time>
      </trkpt>
      <trkpt lat="45.66714" lon="13.91281">
        <ele>426.476135253907</ele>
        <time>2006-01-21T12:13:17Z</time>
      </trkpt>
      <trkpt lat="45.66703" lon="13.91307">
        <ele>427.451538085939</ele>
        <time>2006-01-21T12:13:37Z</time>
      </trkpt>
      <trkpt lat="45.66697" lon="13.9133">
        <ele>428.884063720702</ele>
        <time>2006-01-21T12:13:55Z</time>
      </trkpt>
      <trkpt lat="45.6669" lon="13.91358">
        <ele>429.859466552734</ele>
        <time>2006-01-21T12:14:14Z</time>
      </trkpt>
      <trkpt lat="45.66682" lon="13.91393">
        <ele>430.316650390626</ele>
        <time>2006-01-21T12:14:37Z</time>
      </trkpt>
      <trkpt lat="45.66673" lon="13.91425">
        <ele>431.2919921875</ele>
        <time>2006-01-21T12:14:59Z</time>
      </trkpt>
      <trkpt lat="45.66663" lon="13.91457">
        <ele>431.779663085938</ele>
        <time>2006-01-21T12:15:22Z</time>
      </trkpt>
      <trkpt lat="45.6666" lon="13.91474">
        <ele>431.2919921875</ele>
        <time>2006-01-21T12:15:39Z</time>
      </trkpt>
      <trkpt lat="45.66656" lon="13.91489">
        <ele>431.779663085938</ele>
        <time>2006-01-21T12:15:57Z</time>
      </trkpt>
      <trkpt lat="45.6665" lon="13.91515">
        <ele>432.724548339842</ele>
        <time>2006-01-21T12:16:17Z</time>
      </trkpt>
      <trkpt lat="45.66639" lon="13.91539">
        <ele>433.212249755859</ele>
        <time>2006-01-21T12:16:37Z</time>
      </trkpt>
      <trkpt lat="45.66628" lon="13.91577">
        <ele>428.884063720702</ele>
        <time>2006-01-21T12:17:02Z</time>
      </trkpt>
      <trkpt lat="45.66628" lon="13.91577">
        <ele>433.212249755859</ele>
        <time>2006-01-21T12:17:03Z</time>
      </trkpt>
      <trkpt lat="45.66622" lon="13.91614">
        <ele>434.187591552733</ele>
        <time>2006-01-21T12:17:26Z</time>
      </trkpt>
      <trkpt lat="45.66615" lon="13.9165">
        <ele>434.187591552733</ele>
        <time>2006-01-21T12:17:48Z</time>
      </trkpt>
      <trkpt lat="45.66607" lon="13.91695">
        <ele>434.644805908204</ele>
        <time>2006-01-21T12:18:15Z</time>
      </trkpt>
      <trkpt lat="45.66602" lon="13.91738">
        <ele>435.132476806641</ele>
        <time>2006-01-21T12:18:40Z</time>
      </trkpt>
      <trkpt lat="45.66598" lon="13.91783">
        <ele>435.620147705078</ele>
        <time>2006-01-21T12:19:06Z</time>
      </trkpt>
      <trkpt lat="45.66585" lon="13.91822">
        <ele>435.620147705078</ele>
        <time>2006-01-21T12:19:30Z</time>
      </trkpt>
      <trkpt lat="45.66564" lon="13.91852">
        <ele>436.107849121094</ele>
        <time>2006-01-21T12:19:55Z</time>
      </trkpt>
      <trkpt lat="45.66547" lon="13.9188">
        <ele>437.052734374999</ele>
        <time>2006-01-21T12:20:17Z</time>
      </trkpt>
      <trkpt lat="45.66542" lon="13.91886">
        <ele>437.540405273436</ele>
        <time>2006-01-21T12:20:23Z</time>
      </trkpt>
      <trkpt lat="45.66536" lon="13.91903">
        <ele>438.028076171874</ele>
        <time>2006-01-21T12:20:38Z</time>
      </trkpt>
      <trkpt lat="45.66525" lon="13.91925">
        <ele>439.460662841797</ele>
        <time>2006-01-21T12:20:55Z</time>
      </trkpt>
      <trkpt lat="45.66512" lon="13.91948">
        <ele>440.893188476564</ele>
        <time>2006-01-21T12:23:24Z</time>
      </trkpt>
      <trkpt lat="45.66502" lon="13.9197">
        <ele>440.436004638672</ele>
        <time>2006-01-21T12:23:41Z</time>
      </trkpt>
      <trkpt lat="45.66491" lon="13.91991">
        <ele>440.893188476564</ele>
        <time>2006-01-21T12:24:04Z</time>
      </trkpt>
      <trkpt lat="45.66491" lon="13.91991">
        <ele>440.436004638672</ele>
        <time>2006-01-21T12:24:28Z</time>
      </trkpt>
      <trkpt lat="45.66491" lon="13.92006">
        <ele>439.948333740235</ele>
        <time>2006-01-21T12:24:46Z</time>
      </trkpt>
      <trkpt lat="45.66484" lon="13.92041">
        <ele>440.436004638672</ele>
        <time>2006-01-21T12:25:08Z</time>
      </trkpt>
      <trkpt lat="45.66487" lon="13.92077">
        <ele>440.436004638672</ele>
        <time>2006-01-21T12:25:30Z</time>
      </trkpt>
      <trkpt lat="45.66487" lon="13.92109">
        <ele>440.436004638672</ele>
        <time>2006-01-21T12:25:50Z</time>
      </trkpt>
      <trkpt lat="45.66489" lon="13.92146">
        <ele>440.436004638672</ele>
        <time>2006-01-21T12:26:12Z</time>
      </trkpt>
      <trkpt lat="45.66489" lon="13.92176">
        <ele>439.948333740235</ele>
        <time>2006-01-21T12:26:32Z</time>
      </trkpt>
      <trkpt lat="45.66487" lon="13.92184">
        <ele>440.436004638672</ele>
        <time>2006-01-21T12:26:46Z</time>
      </trkpt>
      <trkpt lat="45.66487" lon="13.92191">
        <ele>439.948333740235</ele>
        <time>2006-01-21T12:27:01Z</time>
      </trkpt>
      <trkpt lat="45.66478" lon="13.92221">
        <ele>440.436004638672</ele>
        <time>2006-01-21T12:27:22Z</time>
      </trkpt>
      <trkpt lat="45.66465" lon="13.92247">
        <ele>438.972930908202</ele>
        <time>2006-01-21T12:27:43Z</time>
      </trkpt>
      <trkpt lat="45.66446" lon="13.92266">
        <ele>438.972930908202</ele>
        <time>2006-01-21T12:28:03Z</time>
      </trkpt>
      <trkpt lat="45.66422" lon="13.92283">
        <ele>438.972930908202</ele>
        <time>2006-01-21T12:28:26Z</time>
      </trkpt>
      <trkpt lat="45.66418" lon="13.92285">
        <ele>438.972930908202</ele>
        <time>2006-01-21T12:28:31Z</time>
      </trkpt>
      <trkpt lat="45.66394" lon="13.92298">
        <ele>438.485260009765</ele>
        <time>2006-01-21T12:28:54Z</time>
      </trkpt>
      <trkpt lat="45.66371" lon="13.92309">
        <ele>438.972930908202</ele>
        <time>2006-01-21T12:29:19Z</time>
      </trkpt>
      <trkpt lat="45.66351" lon="13.92318">
        <ele>438.972930908202</ele>
        <time>2006-01-21T12:29:36Z</time>
      </trkpt>
      <trkpt lat="45.66332" lon="13.92326">
        <ele>439.948333740235</ele>
        <time>2006-01-21T12:29:57Z</time>
      </trkpt>
      <trkpt lat="45.66321" lon="13.9233">
        <ele>440.436004638672</ele>
        <time>2006-01-21T12:30:14Z</time>
      </trkpt>
      <trkpt lat="45.66313" lon="13.9233">
        <ele>439.948333740235</ele>
        <time>2006-01-21T12:30:27Z</time>
      </trkpt>
      <trkpt lat="45.66306" lon="13.92326">
        <ele>436.565063476562</ele>
        <time>2006-01-21T12:30:40Z</time>
      </trkpt>
      <trkpt lat="45.66306" lon="13.92326">
        <ele>444.733673095704</ele>
        <time>2006-01-21T12:30:41Z</time>
      </trkpt>
      <trkpt lat="45.66304" lon="13.92326">
        <ele>440.436004638672</ele>
        <time>2006-01-21T12:30:42Z</time>
      </trkpt>
      <trkpt lat="45.66291" lon="13.92324">
        <ele>442.35626220703</ele>
        <time>2006-01-21T12:33:18Z</time>
      </trkpt>
      <trkpt lat="45.66278" lon="13.92322">
        <ele>443.301116943359</ele>
        <time>2006-01-21T12:33:35Z</time>
      </trkpt>
      <trkpt lat="45.66257" lon="13.9232">
        <ele>443.301116943359</ele>
        <time>2006-01-21T12:33:57Z</time>
      </trkpt>
      <trkpt lat="45.66251" lon="13.92318">
        <ele>443.788787841796</ele>
        <time>2006-01-21T12:38:38Z</time>
      </trkpt>
      <trkpt lat="45.66246" lon="13.92318">
        <ele>443.788787841796</ele>
        <time>2006-01-21T12:38:54Z</time>
      </trkpt>
      <trkpt lat="45.66236" lon="13.92318">
        <ele>444.276458740234</ele>
        <time>2006-01-21T12:39:07Z</time>
      </trkpt>
      <trkpt lat="45.66208" lon="13.92322">
        <ele>445.221343994141</ele>
        <time>2006-01-21T12:39:32Z</time>
      </trkpt>
      <trkpt lat="45.66195" lon="13.92324">
        <ele>444.733673095704</ele>
        <time>2006-01-21T12:39:42Z</time>
      </trkpt>
      <trkpt lat="45.66186" lon="13.92328">
        <ele>445.221343994141</ele>
        <time>2006-01-21T12:39:51Z</time>
      </trkpt>
      <trkpt lat="45.66158" lon="13.92337">
        <ele>445.709045410157</ele>
        <time>2006-01-21T12:40:15Z</time>
      </trkpt>
      <trkpt lat="45.66135" lon="13.92341">
        <ele>447.629272460937</ele>
        <time>2006-01-21T12:40:37Z</time>
      </trkpt>
      <trkpt lat="45.66124" lon="13.9236">
        <ele>447.629272460937</ele>
        <time>2006-01-21T12:40:54Z</time>
      </trkpt>
      <trkpt lat="45.6612" lon="13.92399">
        <ele>447.141601562499</ele>
        <time>2006-01-21T12:41:16Z</time>
      </trkpt>
      <trkpt lat="45.66118" lon="13.92414">
        <ele>447.141601562499</ele>
        <time>2006-01-21T12:41:25Z</time>
      </trkpt>
      <trkpt lat="45.66109" lon="13.92448">
        <ele>447.629272460937</ele>
        <time>2006-01-21T12:41:46Z</time>
      </trkpt>
      <trkpt lat="45.66098" lon="13.92483">
        <ele>447.629272460937</ele>
        <time>2006-01-21T12:42:08Z</time>
      </trkpt>
      <trkpt lat="45.6609" lon="13.92524">
        <ele>448.60464477539</ele>
        <time>2006-01-21T12:42:33Z</time>
      </trkpt>
      <trkpt lat="45.66083" lon="13.92564">
        <ele>449.06185913086</ele>
        <time>2006-01-21T12:42:56Z</time>
      </trkpt>
      <trkpt lat="45.66087" lon="13.92603">
        <ele>449.549530029298</ele>
        <time>2006-01-21T12:43:19Z</time>
      </trkpt>
      <trkpt lat="45.66094" lon="13.92624">
        <ele>449.06185913086</ele>
        <time>2006-01-21T12:43:33Z</time>
      </trkpt>
      <trkpt lat="45.66105" lon="13.92659">
        <ele>449.549530029298</ele>
        <time>2006-01-21T12:43:54Z</time>
      </trkpt>
      <trkpt lat="45.66118" lon="13.92693">
        <ele>453.390014648438</ele>
        <time>2006-01-21T12:44:17Z</time>
      </trkpt>
      <trkpt lat="45.6612" lon="13.92693">
        <ele>452.44512939453</ele>
        <time>2006-01-21T12:44:18Z</time>
      </trkpt>
      <trkpt lat="45.66128" lon="13.92719">
        <ele>453.390014648438</ele>
        <time>2006-01-21T12:44:36Z</time>
      </trkpt>
      <trkpt lat="45.6612" lon="13.92757">
        <ele>454.853057861329</ele>
        <time>2006-01-21T12:50:21Z</time>
      </trkpt>
      <trkpt lat="45.66105" lon="13.92783">
        <ele>451.957458496093</ele>
        <time>2006-01-21T12:50:41Z</time>
      </trkpt>
      <trkpt lat="45.66103" lon="13.92783">
        <ele>461.558654785156</ele>
        <time>2006-01-21T12:50:42Z</time>
      </trkpt>
      <trkpt lat="45.66103" lon="13.92785">
        <ele>455.797912597658</ele>
        <time>2006-01-21T12:50:43Z</time>
      </trkpt>
      <trkpt lat="45.66092" lon="13.92833">
        <ele>457.23046875</ele>
        <time>2006-01-21T12:56:14Z</time>
      </trkpt>
      <trkpt lat="45.66094" lon="13.92873">
        <ele>457.23046875</ele>
        <time>2006-01-21T12:56:39Z</time>
      </trkpt>
      <trkpt lat="45.66096" lon="13.92893">
        <ele>459.638397216798</ele>
        <time>2006-01-21T13:30:37Z</time>
      </trkpt>
      <trkpt lat="45.66087" lon="13.9291">
        <ele>451.469757080077</ele>
        <time>2006-01-21T13:30:50Z</time>
      </trkpt>
      <trkpt lat="45.66087" lon="13.9291">
        <ele>451.469757080077</ele>
        <time>2006-01-21T13:30:51Z</time>
      </trkpt>
      <trkpt lat="45.66085" lon="13.92927">
        <ele>451.469757080077</ele>
        <time>2006-01-21T13:31:02Z</time>
      </trkpt>
      <trkpt lat="45.66092" lon="13.92955">
        <ele>451.957458496093</ele>
        <time>2006-01-21T13:31:20Z</time>
      </trkpt>
      <trkpt lat="45.66092" lon="13.92985">
        <ele>451.469757080077</ele>
        <time>2006-01-21T13:31:38Z</time>
      </trkpt>
      <trkpt lat="45.66087" lon="13.93017">
        <ele>450.524871826172</ele>
        <time>2006-01-21T13:31:57Z</time>
      </trkpt>
      <trkpt lat="45.66083" lon="13.93051">
        <ele>450.98208618164</ele>
        <time>2006-01-21T13:32:18Z</time>
      </trkpt>
      <trkpt lat="45.66079" lon="13.93086">
        <ele>450.037200927735</ele>
        <time>2006-01-21T13:32:40Z</time>
      </trkpt>
      <trkpt lat="45.66077" lon="13.93099">
        <ele>450.524871826172</ele>
        <time>2006-01-21T13:32:54Z</time>
      </trkpt>
      <trkpt lat="45.66077" lon="13.93129">
        <ele>450.524871826172</ele>
        <time>2006-01-21T13:33:13Z</time>
      </trkpt>
      <trkpt lat="45.66079" lon="13.93163">
        <ele>450.524871826172</ele>
        <time>2006-01-21T13:33:36Z</time>
      </trkpt>
      <trkpt lat="45.66087" lon="13.93199">
        <ele>450.037200927735</ele>
        <time>2006-01-21T13:33:58Z</time>
      </trkpt>
      <trkpt lat="45.66094" lon="13.93234">
        <ele>449.06185913086</ele>
        <time>2006-01-21T13:34:20Z</time>
      </trkpt>
      <trkpt lat="45.66094" lon="13.93242">
        <ele>452.44512939453</ele>
        <time>2006-01-21T13:34:25Z</time>
      </trkpt>
      <trkpt lat="45.66094" lon="13.93245">
        <ele>450.98208618164</ele>
        <time>2006-01-21T13:34:26Z</time>
      </trkpt>
      <trkpt lat="45.66092" lon="13.93283">
        <ele>450.037200927735</ele>
        <time>2006-01-21T13:34:49Z</time>
      </trkpt>
      <trkpt lat="45.66094" lon="13.93302">
        <ele>450.037200927735</ele>
        <time>2006-01-21T13:35:01Z</time>
      </trkpt>
      <trkpt lat="45.66081" lon="13.93324">
        <ele>450.98208618164</ele>
        <time>2006-01-21T13:35:19Z</time>
      </trkpt>
      <trkpt lat="45.66066" lon="13.93352">
        <ele>450.98208618164</ele>
        <time>2006-01-21T13:35:41Z</time>
      </trkpt>
      <trkpt lat="45.66055" lon="13.93384">
        <ele>450.037200927735</ele>
        <time>2006-01-21T13:36:03Z</time>
      </trkpt>
      <trkpt lat="45.66047" lon="13.9341">
        <ele>450.98208618164</ele>
        <time>2006-01-21T13:36:21Z</time>
      </trkpt>
      <trkpt lat="45.66042" lon="13.9342">
        <ele>450.524871826172</ele>
        <time>2006-01-21T13:36:29Z</time>
      </trkpt>
      <trkpt lat="45.66032" lon="13.93459">
        <ele>450.037200927735</ele>
        <time>2006-01-21T13:36:53Z</time>
      </trkpt>
      <trkpt lat="45.66021" lon="13.93491">
        <ele>449.549530029298</ele>
        <time>2006-01-21T13:37:15Z</time>
      </trkpt>
      <trkpt lat="45.66006" lon="13.93519">
        <ele>449.549530029298</ele>
        <time>2006-01-21T13:37:36Z</time>
      </trkpt>
      <trkpt lat="45.65997" lon="13.93534">
        <ele>450.524871826172</ele>
        <time>2006-01-21T13:37:53Z</time>
      </trkpt>
      <trkpt lat="45.65991" lon="13.93564">
        <ele>450.98208618164</ele>
        <time>2006-01-21T13:38:12Z</time>
      </trkpt>
      <trkpt lat="45.6598" lon="13.93605">
        <ele>451.469757080077</ele>
        <time>2006-01-21T13:38:37Z</time>
      </trkpt>
      <trkpt lat="45.65974" lon="13.93639">
        <ele>450.524871826172</ele>
        <time>2006-01-21T13:39:00Z</time>
      </trkpt>
      <trkpt lat="45.65967" lon="13.93667">
        <ele>450.037200927735</ele>
        <time>2006-01-21T13:39:20Z</time>
      </trkpt>
      <trkpt lat="45.65967" lon="13.93669">
        <ele>450.037200927735</ele>
        <time>2006-01-21T13:39:32Z</time>
      </trkpt>
      <trkpt lat="45.65967" lon="13.93699">
        <ele>449.549530029298</ele>
        <time>2006-01-21T13:39:49Z</time>
      </trkpt>
      <trkpt lat="45.65961" lon="13.93742">
        <ele>448.60464477539</ele>
        <time>2006-01-21T13:40:15Z</time>
      </trkpt>
      <trkpt lat="45.65954" lon="13.93777">
        <ele>447.629272460937</ele>
        <time>2006-01-21T13:40:37Z</time>
      </trkpt>
      <trkpt lat="45.6595" lon="13.93815">
        <ele>447.141601562499</ele>
        <time>2006-01-21T13:41:01Z</time>
      </trkpt>
      <trkpt lat="45.65948" lon="13.93858">
        <ele>446.684387207032</ele>
        <time>2006-01-21T13:41:27Z</time>
      </trkpt>
      <trkpt lat="45.65952" lon="13.93893">
        <ele>444.733673095704</ele>
        <time>2006-01-21T13:41:48Z</time>
      </trkpt>
      <trkpt lat="45.65961" lon="13.93931">
        <ele>444.733673095704</ele>
        <time>2006-01-21T13:42:12Z</time>
      </trkpt>
      <trkpt lat="45.65969" lon="13.93972">
        <ele>444.276458740234</ele>
        <time>2006-01-21T13:42:37Z</time>
      </trkpt>
      <trkpt lat="45.65976" lon="13.94004">
        <ele>444.276458740234</ele>
        <time>2006-01-21T13:42:57Z</time>
      </trkpt>
      <trkpt lat="45.65978" lon="13.94028">
        <ele>443.788787841796</ele>
        <time>2006-01-21T13:43:12Z</time>
      </trkpt>
      <trkpt lat="45.65984" lon="13.94043">
        <ele>443.788787841796</ele>
        <time>2006-01-21T13:43:31Z</time>
      </trkpt>
      <trkpt lat="45.65984" lon="13.94047">
        <ele>443.301116943359</ele>
        <time>2006-01-21T13:44:10Z</time>
      </trkpt>
      <trkpt lat="45.65989" lon="13.94064">
        <ele>442.813446044922</ele>
        <time>2006-01-21T13:44:29Z</time>
      </trkpt>
      <trkpt lat="45.65993" lon="13.94101">
        <ele>441.380859375001</ele>
        <time>2006-01-21T13:44:55Z</time>
      </trkpt>
      <trkpt lat="45.65995" lon="13.94116">
        <ele>441.380859375001</ele>
        <time>2006-01-21T13:45:10Z</time>
      </trkpt>
      <trkpt lat="45.65991" lon="13.94116">
        <ele>440.893188476564</ele>
        <time>2006-01-21T13:46:49Z</time>
      </trkpt>
      <trkpt lat="45.65989" lon="13.94114">
        <ele>441.868530273438</ele>
        <time>2006-01-21T13:47:14Z</time>
      </trkpt>
      <trkpt lat="45.65987" lon="13.94116">
        <ele>441.380859375001</ele>
        <time>2006-01-21T13:47:18Z</time>
      </trkpt>
      <trkpt lat="45.65978" lon="13.94118">
        <ele>441.868530273438</ele>
        <time>2006-01-21T13:47:25Z</time>
      </trkpt>
      <trkpt lat="45.65961" lon="13.94118">
        <ele>443.301116943359</ele>
        <time>2006-01-21T13:47:43Z</time>
      </trkpt>
      <trkpt lat="45.65952" lon="13.94122">
        <ele>443.788787841796</ele>
        <time>2006-01-21T13:47:57Z</time>
      </trkpt>
      <trkpt lat="45.65944" lon="13.94144">
        <ele>442.813446044922</ele>
        <time>2006-01-21T13:48:17Z</time>
      </trkpt>
      <trkpt lat="45.65935" lon="13.94174">
        <ele>442.813446044922</ele>
        <time>2006-01-21T13:48:40Z</time>
      </trkpt>
      <trkpt lat="45.65935" lon="13.94174">
        <ele>442.813446044922</ele>
        <time>2006-01-21T13:48:51Z</time>
      </trkpt>
      <trkpt lat="45.65937" lon="13.94176">
        <ele>442.35626220703</ele>
        <time>2006-01-21T13:49:26Z</time>
      </trkpt>
      <trkpt lat="45.65935" lon="13.94191">
        <ele>442.813446044922</ele>
        <time>2006-01-21T13:49:47Z</time>
      </trkpt>
      <trkpt lat="45.65933" lon="13.94204">
        <ele>442.813446044922</ele>
        <time>2006-01-21T13:50:04Z</time>
      </trkpt>
      <trkpt lat="45.65929" lon="13.94208">
        <ele>443.301116943359</ele>
        <time>2006-01-21T13:50:10Z</time>
      </trkpt>
      <trkpt lat="45.65918" lon="13.94242">
        <ele>443.301116943359</ele>
        <time>2006-01-21T13:50:33Z</time>
      </trkpt>
      <trkpt lat="45.65901" lon="13.9427">
        <ele>442.813446044922</ele>
        <time>2006-01-21T13:50:54Z</time>
      </trkpt>
      <trkpt lat="45.65888" lon="13.94287">
        <ele>443.788787841796</ele>
        <time>2006-01-21T13:51:12Z</time>
      </trkpt>
      <trkpt lat="45.65886" lon="13.94292">
        <ele>443.788787841796</ele>
        <time>2006-01-21T13:51:16Z</time>
      </trkpt>
      <trkpt lat="45.65879" lon="13.94298">
        <ele>443.788787841796</ele>
        <time>2006-01-21T13:51:33Z</time>
      </trkpt>
      <trkpt lat="45.65875" lon="13.94305">
        <ele>444.276458740234</ele>
        <time>2006-01-21T13:52:26Z</time>
      </trkpt>
      <trkpt lat="45.65871" lon="13.94313">
        <ele>445.221343994141</ele>
        <time>2006-01-21T13:52:36Z</time>
      </trkpt>
      <trkpt lat="45.65858" lon="13.94335">
        <ele>445.221343994141</ele>
        <time>2006-01-21T13:52:57Z</time>
      </trkpt>
      <trkpt lat="45.65845" lon="13.94354">
        <ele>445.709045410157</ele>
        <time>2006-01-21T13:53:17Z</time>
      </trkpt>
      <trkpt lat="45.65832" lon="13.94371">
        <ele>447.141601562499</ele>
        <time>2006-01-21T13:53:35Z</time>
      </trkpt>
      <trkpt lat="45.65832" lon="13.94371">
        <ele>446.196716308595</ele>
        <time>2006-01-21T13:53:58Z</time>
      </trkpt>
      <trkpt lat="45.65819" lon="13.94386">
        <ele>447.141601562499</ele>
        <time>2006-01-21T13:54:24Z</time>
      </trkpt>
      <trkpt lat="45.65802" lon="13.9441">
        <ele>448.116943359374</ele>
        <time>2006-01-21T13:54:46Z</time>
      </trkpt>
      <trkpt lat="45.65785" lon="13.94433">
        <ele>449.549530029298</ele>
        <time>2006-01-21T13:55:08Z</time>
      </trkpt>
      <trkpt lat="45.65766" lon="13.94463">
        <ele>448.60464477539</ele>
        <time>2006-01-21T13:55:34Z</time>
      </trkpt>
      <trkpt lat="45.65753" lon="13.94487">
        <ele>450.524871826172</ele>
        <time>2006-01-21T13:55:55Z</time>
      </trkpt>
      <trkpt lat="45.65746" lon="13.94506">
        <ele>446.196716308595</ele>
        <time>2006-01-21T13:56:09Z</time>
      </trkpt>
      <trkpt lat="45.65746" lon="13.94508">
        <ele>446.196716308595</ele>
        <time>2006-01-21T13:56:10Z</time>
      </trkpt>
      <trkpt lat="45.65744" lon="13.94511">
        <ele>454.365356445313</ele>
        <time>2006-01-21T13:56:11Z</time>
      </trkpt>
      <trkpt lat="45.65744" lon="13.94511">
        <ele>449.06185913086</ele>
        <time>2006-01-21T13:56:12Z</time>
      </trkpt>
      <trkpt lat="45.65738" lon="13.94549">
        <ele>449.549530029298</ele>
        <time>2006-01-21T13:56:36Z</time>
      </trkpt>
      <trkpt lat="45.65729" lon="13.94573">
        <ele>448.60464477539</ele>
        <time>2006-01-21T13:56:54Z</time>
      </trkpt>
      <trkpt lat="45.65716" lon="13.94603">
        <ele>446.196716308595</ele>
        <time>2006-01-21T13:57:18Z</time>
      </trkpt>
      <trkpt lat="45.65701" lon="13.94629">
        <ele>446.196716308595</ele>
        <time>2006-01-21T13:57:39Z</time>
      </trkpt>
      <trkpt lat="45.65684" lon="13.94654">
        <ele>444.276458740234</ele>
        <time>2006-01-21T13:58:02Z</time>
      </trkpt>
      <trkpt lat="45.65663" lon="13.9468">
        <ele>444.733673095704</ele>
        <time>2006-01-21T13:58:26Z</time>
      </trkpt>
      <trkpt lat="45.65648" lon="13.94712">
        <ele>446.684387207032</ele>
        <time>2006-01-21T13:58:52Z</time>
      </trkpt>
      <trkpt lat="45.65645" lon="13.94717">
        <ele>446.684387207032</ele>
        <time>2006-01-21T13:58:55Z</time>
      </trkpt>
      <trkpt lat="45.65645" lon="13.94723">
        <ele>446.684387207032</ele>
        <time>2006-01-21T13:58:59Z</time>
      </trkpt>
      <trkpt lat="45.65652" lon="13.94753">
        <ele>448.60464477539</ele>
        <time>2006-01-21T13:59:20Z</time>
      </trkpt>
      <trkpt lat="45.65648" lon="13.9477">
        <ele>450.037200927735</ele>
        <time>2006-01-21T13:59:38Z</time>
      </trkpt>
      <trkpt lat="45.65633" lon="13.94789">
        <ele>451.957458496093</ele>
        <time>2006-01-21T14:00:00Z</time>
      </trkpt>
      <trkpt lat="45.65626" lon="13.94804">
        <ele>453.877685546875</ele>
        <time>2006-01-21T14:00:16Z</time>
      </trkpt>
      <trkpt lat="45.65624" lon="13.94813">
        <ele>455.310241699217</ele>
        <time>2006-01-21T14:00:25Z</time>
      </trkpt>
      <trkpt lat="45.65618" lon="13.94828">
        <ele>456.285614013671</ele>
        <time>2006-01-21T14:00:45Z</time>
      </trkpt>
      <trkpt lat="45.65615" lon="13.94837">
        <ele>455.797912597658</ele>
        <time>2006-01-21T14:01:02Z</time>
      </trkpt>
      <trkpt lat="45.65613" lon="13.94837">
        <ele>456.773284912108</ele>
        <time>2006-01-21T14:01:30Z</time>
      </trkpt>
      <trkpt lat="45.65611" lon="13.94852">
        <ele>456.285614013671</ele>
        <time>2006-01-21T14:02:35Z</time>
      </trkpt>
      <trkpt lat="45.65611" lon="13.94892">
        <ele>455.310241699217</ele>
        <time>2006-01-21T14:03:02Z</time>
      </trkpt>
      <trkpt lat="45.65615" lon="13.94933">
        <ele>453.877685546875</ele>
        <time>2006-01-21T14:03:29Z</time>
      </trkpt>
      <trkpt lat="45.65613" lon="13.94961">
        <ele>454.365356445313</ele>
        <time>2006-01-21T14:03:48Z</time>
      </trkpt>
      <trkpt lat="45.656" lon="13.94989">
        <ele>455.310241699217</ele>
        <time>2006-01-21T14:04:11Z</time>
      </trkpt>
      <trkpt lat="45.65585" lon="13.95015">
        <ele>456.285614013671</ele>
        <time>2006-01-21T14:04:32Z</time>
      </trkpt>
      <trkpt lat="45.65575" lon="13.95038">
        <ele>456.773284912108</ele>
        <time>2006-01-21T14:04:51Z</time>
      </trkpt>
      <trkpt lat="45.65564" lon="13.95064">
        <ele>457.718139648437</ele>
        <time>2006-01-21T14:05:11Z</time>
      </trkpt>
      <trkpt lat="45.65555" lon="13.9509">
        <ele>458.693542480469</ele>
        <time>2006-01-21T14:05:30Z</time>
      </trkpt>
      <trkpt lat="45.65549" lon="13.95116">
        <ele>460.126068115235</ele>
        <time>2006-01-21T14:05:49Z</time>
      </trkpt>
      <trkpt lat="45.6554" lon="13.95144">
        <ele>461.558654785156</ele>
        <time>2006-01-21T14:06:12Z</time>
      </trkpt>
      <trkpt lat="45.65534" lon="13.95167">
        <ele>463.478881835938</ele>
        <time>2006-01-21T14:06:33Z</time>
      </trkpt>
      <trkpt lat="45.65536" lon="13.95176">
        <ele>459.181213378906</ele>
        <time>2006-01-21T14:06:40Z</time>
      </trkpt>
      <trkpt lat="45.65536" lon="13.95178">
        <ele>468.294738769532</ele>
        <time>2006-01-21T14:06:42Z</time>
      </trkpt>
      <trkpt lat="45.65536" lon="13.9518">
        <ele>463.478881835938</ele>
        <time>2006-01-21T14:06:43Z</time>
      </trkpt>
      <trkpt lat="45.65538" lon="13.95193">
        <ele>463.021667480468</ele>
        <time>2006-01-21T14:06:58Z</time>
      </trkpt>
      <trkpt lat="45.65538" lon="13.95195">
        <ele>463.021667480468</ele>
        <time>2006-01-21T14:07:00Z</time>
      </trkpt>
      <trkpt lat="45.65542" lon="13.95225">
        <ele>462.533996582031</ele>
        <time>2006-01-21T14:07:23Z</time>
      </trkpt>
      <trkpt lat="45.65536" lon="13.95251">
        <ele>462.533996582031</ele>
        <time>2006-01-21T14:07:42Z</time>
      </trkpt>
      <trkpt lat="45.65525" lon="13.95272">
        <ele>462.533996582031</ele>
        <time>2006-01-21T14:08:01Z</time>
      </trkpt>
      <trkpt lat="45.65504" lon="13.95283">
        <ele>463.478881835938</ele>
        <time>2006-01-21T14:08:21Z</time>
      </trkpt>
      <trkpt lat="45.65487" lon="13.95289">
        <ele>465.429595947266</ele>
        <time>2006-01-21T14:08:39Z</time>
      </trkpt>
      <trkpt lat="45.65485" lon="13.95302">
        <ele>463.966552734376</ele>
        <time>2006-01-21T14:08:48Z</time>
      </trkpt>
      <trkpt lat="45.65487" lon="13.95319">
        <ele>464.454254150392</ele>
        <time>2006-01-21T14:09:00Z</time>
      </trkpt>
      <trkpt lat="45.65476" lon="13.95347">
        <ele>465.886810302734</ele>
        <time>2006-01-21T14:09:24Z</time>
      </trkpt>
      <trkpt lat="45.65463" lon="13.95354">
        <ele>467.349853515624</ele>
        <time>2006-01-21T14:09:42Z</time>
      </trkpt>
      <trkpt lat="45.65454" lon="13.95356">
        <ele>467.807067871095</ele>
        <time>2006-01-21T14:09:51Z</time>
      </trkpt>
      <trkpt lat="45.65442" lon="13.95365">
        <ele>468.78240966797</ele>
        <time>2006-01-21T14:10:06Z</time>
      </trkpt>
      <trkpt lat="45.65431" lon="13.95386">
        <ele>469.270080566407</ele>
        <time>2006-01-21T14:10:26Z</time>
      </trkpt>
      <trkpt lat="45.65427" lon="13.9541">
        <ele>469.727264404295</ele>
        <time>2006-01-21T14:10:44Z</time>
      </trkpt>
      <trkpt lat="45.65424" lon="13.95416">
        <ele>470.214935302736</ele>
        <time>2006-01-21T14:11:01Z</time>
      </trkpt>
      <trkpt lat="45.65424" lon="13.95425">
        <ele>469.727264404295</ele>
        <time>2006-01-21T14:11:38Z</time>
      </trkpt>
      <trkpt lat="45.65414" lon="13.95452">
        <ele>468.294738769532</ele>
        <time>2006-01-21T14:12:01Z</time>
      </trkpt>
      <trkpt lat="45.65403" lon="13.95487">
        <ele>466.862152099608</ele>
        <time>2006-01-21T14:12:25Z</time>
      </trkpt>
      <trkpt lat="45.65399" lon="13.95515">
        <ele>462.533996582031</ele>
        <time>2006-01-21T14:12:43Z</time>
      </trkpt>
      <trkpt lat="45.65399" lon="13.95515">
        <ele>462.533996582031</ele>
        <time>2006-01-21T14:12:44Z</time>
      </trkpt>
      <trkpt lat="45.65399" lon="13.95517">
        <ele>469.727264404295</ele>
        <time>2006-01-21T14:12:45Z</time>
      </trkpt>
      <trkpt lat="45.65399" lon="13.95519">
        <ele>466.862152099608</ele>
        <time>2006-01-21T14:12:46Z</time>
      </trkpt>
      <trkpt lat="45.65397" lon="13.95521">
        <ele>466.374481201171</ele>
        <time>2006-01-21T14:12:48Z</time>
      </trkpt>
      <trkpt lat="45.65392" lon="13.95553">
        <ele>465.886810302734</ele>
        <time>2006-01-21T14:13:10Z</time>
      </trkpt>
      <trkpt lat="45.65392" lon="13.95579">
        <ele>467.349853515624</ele>
        <time>2006-01-21T14:13:29Z</time>
      </trkpt>
      <trkpt lat="45.65392" lon="13.95581">
        <ele>466.374481201171</ele>
        <time>2006-01-21T14:13:31Z</time>
      </trkpt>
      <trkpt lat="45.65392" lon="13.95586">
        <ele>456.285614013671</ele>
        <time>2006-01-21T14:13:34Z</time>
      </trkpt>
      <trkpt lat="45.65394" lon="13.95588">
        <ele>466.374481201171</ele>
        <time>2006-01-21T14:13:35Z</time>
      </trkpt>
      <trkpt lat="45.65397" lon="13.95622">
        <ele>466.374481201171</ele>
        <time>2006-01-21T14:13:58Z</time>
      </trkpt>
      <trkpt lat="45.65403" lon="13.95652">
        <ele>466.862152099608</ele>
        <time>2006-01-21T14:14:20Z</time>
      </trkpt>
      <trkpt lat="45.65401" lon="13.95684">
        <ele>465.886810302734</ele>
        <time>2006-01-21T14:14:40Z</time>
      </trkpt>
      <trkpt lat="45.65397" lon="13.9571">
        <ele>466.862152099608</ele>
        <time>2006-01-21T14:14:57Z</time>
      </trkpt>
      <trkpt lat="45.65388" lon="13.9574">
        <ele>467.349853515624</ele>
        <time>2006-01-21T14:15:18Z</time>
      </trkpt>
      <trkpt lat="45.65373" lon="13.9577">
        <ele>467.807067871095</ele>
        <time>2006-01-21T14:15:43Z</time>
      </trkpt>
      <trkpt lat="45.6536" lon="13.958">
        <ele>468.78240966797</ele>
        <time>2006-01-21T14:16:06Z</time>
      </trkpt>
      <trkpt lat="45.65349" lon="13.9583">
        <ele>470.214935302736</ele>
        <time>2006-01-21T14:16:29Z</time>
      </trkpt>
      <trkpt lat="45.65332" lon="13.95856">
        <ele>472.135192871094</ele>
        <time>2006-01-21T14:16:53Z</time>
      </trkpt>
      <trkpt lat="45.65315" lon="13.95877">
        <ele>471.678009033202</ele>
        <time>2006-01-21T14:17:15Z</time>
      </trkpt>
      <trkpt lat="45.65304" lon="13.95901">
        <ele>471.190338134765</ele>
        <time>2006-01-21T14:17:34Z</time>
      </trkpt>
      <trkpt lat="45.65291" lon="13.95937">
        <ele>471.190338134765</ele>
        <time>2006-01-21T14:17:59Z</time>
      </trkpt>
      <trkpt lat="45.65276" lon="13.95974">
        <ele>471.190338134765</ele>
        <time>2006-01-21T14:18:26Z</time>
      </trkpt>
      <trkpt lat="45.6527" lon="13.96013">
        <ele>471.190338134765</ele>
        <time>2006-01-21T14:18:51Z</time>
      </trkpt>
      <trkpt lat="45.65261" lon="13.96047">
        <ele>471.678009033202</ele>
        <time>2006-01-21T14:19:15Z</time>
      </trkpt>
      <trkpt lat="45.65253" lon="13.96081">
        <ele>471.678009033202</ele>
        <time>2006-01-21T14:19:40Z</time>
      </trkpt>
      <trkpt lat="45.65246" lon="13.96109">
        <ele>472.135192871094</ele>
        <time>2006-01-21T14:20:00Z</time>
      </trkpt>
      <trkpt lat="45.65251" lon="13.96124">
        <ele>471.678009033202</ele>
        <time>2006-01-21T14:20:45Z</time>
      </trkpt>
      <trkpt lat="45.6524" lon="13.96126">
        <ele>471.678009033202</ele>
        <time>2006-01-21T14:20:58Z</time>
      </trkpt>
      <trkpt lat="45.65227" lon="13.96176">
        <ele>470.702667236328</ele>
        <time>2006-01-21T14:21:22Z</time>
      </trkpt>
      <trkpt lat="45.6521" lon="13.96225">
        <ele>467.807067871095</ele>
        <time>2006-01-21T14:21:47Z</time>
      </trkpt>
      <trkpt lat="45.65191" lon="13.96257">
        <ele>467.807067871095</ele>
        <time>2006-01-21T14:22:06Z</time>
      </trkpt>
      <trkpt lat="45.6518" lon="13.96296">
        <ele>467.349853515624</ele>
        <time>2006-01-21T14:22:26Z</time>
      </trkpt>
      <trkpt lat="45.65191" lon="13.96339">
        <ele>466.862152099608</ele>
        <time>2006-01-21T14:22:49Z</time>
      </trkpt>
      <trkpt lat="45.6518" lon="13.96362">
        <ele>465.429595947266</ele>
        <time>2006-01-21T14:23:09Z</time>
      </trkpt>
      <trkpt lat="45.65169" lon="13.96375">
        <ele>465.429595947266</ele>
        <time>2006-01-21T14:23:29Z</time>
      </trkpt>
      <trkpt lat="45.6515" lon="13.96394">
        <ele>464.454254150392</ele>
        <time>2006-01-21T14:23:49Z</time>
      </trkpt>
      <trkpt lat="45.6513" lon="13.9642">
        <ele>464.454254150392</ele>
        <time>2006-01-21T14:24:11Z</time>
      </trkpt>
      <trkpt lat="45.65115" lon="13.96448">
        <ele>466.862152099608</ele>
        <time>2006-01-21T14:24:36Z</time>
      </trkpt>
      <trkpt lat="45.65107" lon="13.96465">
        <ele>468.294738769532</ele>
        <time>2006-01-21T14:24:52Z</time>
      </trkpt>
      <trkpt lat="45.651" lon="13.96485">
        <ele>464.941925048829</ele>
        <time>2006-01-21T14:25:08Z</time>
      </trkpt>
      <trkpt lat="45.651" lon="13.96487">
        <ele>469.727264404295</ele>
        <time>2006-01-21T14:25:09Z</time>
      </trkpt>
      <trkpt lat="45.6509" lon="13.96513">
        <ele>468.78240966797</ele>
        <time>2006-01-21T14:25:30Z</time>
      </trkpt>
      <trkpt lat="45.65085" lon="13.96543">
        <ele>468.78240966797</ele>
        <time>2006-01-21T14:25:49Z</time>
      </trkpt>
      <trkpt lat="45.65085" lon="13.96581">
        <ele>466.862152099608</ele>
        <time>2006-01-21T14:26:16Z</time>
      </trkpt>
      <trkpt lat="45.65085" lon="13.96583">
        <ele>470.702667236328</ele>
        <time>2006-01-21T14:26:17Z</time>
      </trkpt>
      <trkpt lat="45.65085" lon="13.96585">
        <ele>468.294738769532</ele>
        <time>2006-01-21T14:26:18Z</time>
      </trkpt>
      <trkpt lat="45.65088" lon="13.96624">
        <ele>466.862152099608</ele>
        <time>2006-01-21T14:26:40Z</time>
      </trkpt>
      <trkpt lat="45.6509" lon="13.96661">
        <ele>465.886810302734</ele>
        <time>2006-01-21T14:27:00Z</time>
      </trkpt>
      <trkpt lat="45.65094" lon="13.96697">
        <ele>464.454254150392</ele>
        <time>2006-01-21T14:27:23Z</time>
      </trkpt>
      <trkpt lat="45.65094" lon="13.96729">
        <ele>462.046325683593</ele>
        <time>2006-01-21T14:27:45Z</time>
      </trkpt>
      <trkpt lat="45.65092" lon="13.96744">
        <ele>462.533996582031</ele>
        <time>2006-01-21T14:28:02Z</time>
      </trkpt>
      <trkpt lat="45.65092" lon="13.96744">
        <ele>463.021667480468</ele>
        <time>2006-01-21T14:28:25Z</time>
      </trkpt>
      <trkpt lat="45.6509" lon="13.96753">
        <ele>462.533996582031</ele>
        <time>2006-01-21T14:28:43Z</time>
      </trkpt>
      <trkpt lat="45.65079" lon="13.96776">
        <ele>462.533996582031</ele>
        <time>2006-01-21T14:29:02Z</time>
      </trkpt>
      <trkpt lat="45.65068" lon="13.96809">
        <ele>462.046325683593</ele>
        <time>2006-01-21T14:29:26Z</time>
      </trkpt>
      <trkpt lat="45.65055" lon="13.96841">
        <ele>463.021667480468</ele>
        <time>2006-01-21T14:29:49Z</time>
      </trkpt>
      <trkpt lat="45.65053" lon="13.96847">
        <ele>456.773284912108</ele>
        <time>2006-01-21T14:29:54Z</time>
      </trkpt>
      <trkpt lat="45.65053" lon="13.96849">
        <ele>461.558654785156</ele>
        <time>2006-01-21T14:29:55Z</time>
      </trkpt>
      <trkpt lat="45.65051" lon="13.96852">
        <ele>462.533996582031</ele>
        <time>2006-01-21T14:29:57Z</time>
      </trkpt>
      <trkpt lat="45.65047" lon="13.96867">
        <ele>462.533996582031</ele>
        <time>2006-01-21T14:30:07Z</time>
      </trkpt>
      <trkpt lat="45.65045" lon="13.96873">
        <ele>463.021667480468</ele>
        <time>2006-01-21T14:30:12Z</time>
      </trkpt>
      <trkpt lat="45.65036" lon="13.96894">
        <ele>466.862152099608</ele>
        <time>2006-01-21T14:43:55Z</time>
      </trkpt>
      <trkpt lat="45.65023" lon="13.96914">
        <ele>466.862152099608</ele>
        <time>2006-01-21T14:44:14Z</time>
      </trkpt>
      <trkpt lat="45.65015" lon="13.96933">
        <ele>467.349853515624</ele>
        <time>2006-01-21T14:44:31Z</time>
      </trkpt>
      <trkpt lat="45.65012" lon="13.96948">
        <ele>469.270080566407</ele>
        <time>2006-01-21T14:44:43Z</time>
      </trkpt>
      <trkpt lat="45.6501" lon="13.96974">
        <ele>467.349853515624</ele>
        <time>2006-01-21T14:45:01Z</time>
      </trkpt>
      <trkpt lat="45.6501" lon="13.97012">
        <ele>466.862152099608</ele>
        <time>2006-01-21T14:45:27Z</time>
      </trkpt>
      <trkpt lat="45.65004" lon="13.97049">
        <ele>466.374481201171</ele>
        <time>2006-01-21T14:45:51Z</time>
      </trkpt>
      <trkpt lat="45.64991" lon="13.97077">
        <ele>467.807067871095</ele>
        <time>2006-01-21T14:46:14Z</time>
      </trkpt>
      <trkpt lat="45.64978" lon="13.97107">
        <ele>468.294738769532</ele>
        <time>2006-01-21T14:46:34Z</time>
      </trkpt>
      <trkpt lat="45.64972" lon="13.97143">
        <ele>468.294738769532</ele>
        <time>2006-01-21T14:46:57Z</time>
      </trkpt>
      <trkpt lat="45.64974" lon="13.97182">
        <ele>468.78240966797</ele>
        <time>2006-01-21T14:47:19Z</time>
      </trkpt>
      <trkpt lat="45.64976" lon="13.97218">
        <ele>466.862152099608</ele>
        <time>2006-01-21T14:47:42Z</time>
      </trkpt>
      <trkpt lat="45.64978" lon="13.97261">
        <ele>466.862152099608</ele>
        <time>2006-01-21T14:48:08Z</time>
      </trkpt>
      <trkpt lat="45.6498" lon="13.97274">
        <ele>465.429595947266</ele>
        <time>2006-01-21T14:48:17Z</time>
      </trkpt>
      <trkpt lat="45.64982" lon="13.97298">
        <ele>464.454254150392</ele>
        <time>2006-01-21T14:48:38Z</time>
      </trkpt>
      <trkpt lat="45.6498" lon="13.97304">
        <ele>463.478881835938</ele>
        <time>2006-01-21T14:48:54Z</time>
      </trkpt>
      <trkpt lat="45.64974" lon="13.97313">
        <ele>462.533996582031</ele>
        <time>2006-01-21T14:49:07Z</time>
      </trkpt>
      <trkpt lat="45.64963" lon="13.97347">
        <ele>460.126068115235</ele>
        <time>2006-01-21T14:49:30Z</time>
      </trkpt>
      <trkpt lat="45.64948" lon="13.97386">
        <ele>457.718139648437</ele>
        <time>2006-01-21T14:49:58Z</time>
      </trkpt>
      <trkpt lat="45.64946" lon="13.97392">
        <ele>457.23046875</ele>
        <time>2006-01-21T14:50:07Z</time>
      </trkpt>
      <trkpt lat="45.64937" lon="13.9742">
        <ele>453.877685546875</ele>
        <time>2006-01-21T14:50:28Z</time>
      </trkpt>
      <trkpt lat="45.6495" lon="13.97446">
        <ele>452.44512939453</ele>
        <time>2006-01-21T14:50:49Z</time>
      </trkpt>
      <trkpt lat="45.6497" lon="13.97461">
        <ele>450.524871826172</ele>
        <time>2006-01-21T14:51:10Z</time>
      </trkpt>
      <trkpt lat="45.64991" lon="13.97489">
        <ele>449.549530029298</ele>
        <time>2006-01-21T14:51:35Z</time>
      </trkpt>
      <trkpt lat="45.65008" lon="13.97517">
        <ele>447.629272460937</ele>
        <time>2006-01-21T14:51:59Z</time>
      </trkpt>
      <trkpt lat="45.65019" lon="13.9754">
        <ele>447.141601562499</ele>
        <time>2006-01-21T14:52:18Z</time>
      </trkpt>
      <trkpt lat="45.65019" lon="13.9754">
        <ele>447.141601562499</ele>
        <time>2006-01-21T14:52:19Z</time>
      </trkpt>
      <trkpt lat="45.65021" lon="13.97549">
        <ele>447.141601562499</ele>
        <time>2006-01-21T14:52:25Z</time>
      </trkpt>
      <trkpt lat="45.65025" lon="13.97555">
        <ele>446.684387207032</ele>
        <time>2006-01-21T14:52:30Z</time>
      </trkpt>
      <trkpt lat="45.65042" lon="13.97588">
        <ele>446.196716308595</ele>
        <time>2006-01-21T14:52:55Z</time>
      </trkpt>
      <trkpt lat="45.65053" lon="13.97613">
        <ele>445.709045410157</ele>
        <time>2006-01-21T14:53:14Z</time>
      </trkpt>
      <trkpt lat="45.65066" lon="13.97641">
        <ele>445.221343994141</ele>
        <time>2006-01-21T14:53:35Z</time>
      </trkpt>
      <trkpt lat="45.65088" lon="13.97665">
        <ele>443.788787841796</ele>
        <time>2006-01-21T14:53:58Z</time>
      </trkpt>
      <trkpt lat="45.65103" lon="13.97684">
        <ele>442.813446044922</ele>
        <time>2006-01-21T14:54:14Z</time>
      </trkpt>
      <trkpt lat="45.65115" lon="13.9771">
        <ele>441.868530273438</ele>
        <time>2006-01-21T14:54:33Z</time>
      </trkpt>
      <trkpt lat="45.65128" lon="13.9774">
        <ele>442.35626220703</ele>
        <time>2006-01-21T14:54:56Z</time>
      </trkpt>
      <trkpt lat="45.65141" lon="13.9777">
        <ele>442.813446044922</ele>
        <time>2006-01-21T14:55:19Z</time>
      </trkpt>
      <trkpt lat="45.65154" lon="13.97794">
        <ele>442.35626220703</ele>
        <time>2006-01-21T14:55:37Z</time>
      </trkpt>
      <trkpt lat="45.65165" lon="13.97813">
        <ele>441.868530273438</ele>
        <time>2006-01-21T14:55:52Z</time>
      </trkpt>
      <trkpt lat="45.65182" lon="13.97847">
        <ele>441.868530273438</ele>
        <time>2006-01-21T14:56:19Z</time>
      </trkpt>
      <trkpt lat="45.65197" lon="13.97871">
        <ele>441.380859375001</ele>
        <time>2006-01-21T14:56:38Z</time>
      </trkpt>
      <trkpt lat="45.6521" lon="13.97894">
        <ele>441.380859375001</ele>
        <time>2006-01-21T14:56:56Z</time>
      </trkpt>
      <trkpt lat="45.65225" lon="13.97912">
        <ele>441.380859375001</ele>
        <time>2006-01-21T14:57:13Z</time>
      </trkpt>
      <trkpt lat="45.65242" lon="13.97929">
        <ele>441.380859375001</ele>
        <time>2006-01-21T14:57:31Z</time>
      </trkpt>
      <trkpt lat="45.65259" lon="13.97948">
        <ele>440.893188476564</ele>
        <time>2006-01-21T14:57:50Z</time>
      </trkpt>
      <trkpt lat="45.65264" lon="13.97952">
        <ele>441.380859375001</ele>
        <time>2006-01-21T14:57:55Z</time>
      </trkpt>
      <trkpt lat="45.65281" lon="13.97974">
        <ele>440.893188476564</ele>
        <time>2006-01-21T14:58:15Z</time>
      </trkpt>
      <trkpt lat="45.65294" lon="13.97987">
        <ele>441.868530273438</ele>
        <time>2006-01-21T14:58:30Z</time>
      </trkpt>
      <trkpt lat="45.65294" lon="13.97987">
        <ele>440.436004638672</ele>
        <time>2006-01-21T14:58:31Z</time>
      </trkpt>
      <trkpt lat="45.65296" lon="13.97989">
        <ele>438.028076171874</ele>
        <time>2006-01-21T14:58:33Z</time>
      </trkpt>
      <trkpt lat="45.65296" lon="13.97991">
        <ele>441.868530273438</ele>
        <time>2006-01-21T14:58:34Z</time>
      </trkpt>
      <trkpt lat="45.65309" lon="13.9801">
        <ele>440.893188476564</ele>
        <time>2006-01-21T14:58:51Z</time>
      </trkpt>
      <trkpt lat="45.65313" lon="13.98025">
        <ele>440.893188476564</ele>
        <time>2006-01-21T14:59:04Z</time>
      </trkpt>
      <trkpt lat="45.65321" lon="13.98057">
        <ele>438.972930908202</ele>
        <time>2006-01-21T14:59:27Z</time>
      </trkpt>
      <trkpt lat="45.65324" lon="13.98088">
        <ele>438.485260009765</ele>
        <time>2006-01-21T14:59:49Z</time>
      </trkpt>
      <trkpt lat="45.65326" lon="13.98094">
        <ele>438.485260009765</ele>
        <time>2006-01-21T15:00:06Z</time>
      </trkpt>
      <trkpt lat="45.65326" lon="13.98094">
        <ele>438.028076171874</ele>
        <time>2006-01-21T15:00:37Z</time>
      </trkpt>
      <trkpt lat="45.65326" lon="13.98092">
        <ele>438.028076171874</ele>
        <time>2006-01-21T15:00:48Z</time>
      </trkpt>
      <trkpt lat="45.65326" lon="13.98092">
        <ele>434.644805908204</ele>
        <time>2006-01-21T15:00:59Z</time>
      </trkpt>
      <trkpt lat="45.65326" lon="13.98092">
        <ele>439.460662841797</ele>
        <time>2006-01-21T15:01:00Z</time>
      </trkpt>
      <trkpt lat="45.65326" lon="13.98092">
        <ele>439.460662841797</ele>
        <time>2006-01-21T15:01:01Z</time>
      </trkpt>
      <trkpt lat="45.65326" lon="13.98094">
        <ele>436.565063476562</ele>
        <time>2006-01-21T15:01:06Z</time>
      </trkpt>
      <trkpt lat="45.65326" lon="13.98094">
        <ele>439.948333740235</ele>
        <time>2006-01-21T15:01:07Z</time>
      </trkpt>
      <trkpt lat="45.65326" lon="13.98094">
        <ele>438.972930908202</ele>
        <time>2006-01-21T15:01:10Z</time>
      </trkpt>
      <trkpt lat="45.65326" lon="13.98094">
        <ele>438.028076171874</ele>
        <time>2006-01-21T15:02:42Z</time>
      </trkpt>
      <trkpt lat="45.65324" lon="13.98094">
        <ele>438.485260009765</ele>
        <time>2006-01-21T15:03:59Z</time>
      </trkpt>
      <trkpt lat="45.65324" lon="13.98096">
        <ele>438.485260009765</ele>
        <time>2006-01-21T15:04:35Z</time>
      </trkpt>
      <trkpt lat="45.65326" lon="13.98103">
        <ele>437.540405273436</ele>
        <time>2006-01-21T15:04:39Z</time>
      </trkpt>
      <trkpt lat="45.65332" lon="13.98135">
        <ele>436.565063476562</ele>
        <time>2006-01-21T15:05:02Z</time>
      </trkpt>
      <trkpt lat="45.65336" lon="13.98169">
        <ele>435.620147705078</ele>
        <time>2006-01-21T15:05:25Z</time>
      </trkpt>
      <trkpt lat="45.65341" lon="13.98193">
        <ele>435.132476806641</ele>
        <time>2006-01-21T15:05:44Z</time>
      </trkpt>
      <trkpt lat="45.65345" lon="13.98216">
        <ele>434.187591552733</ele>
        <time>2006-01-21T15:06:01Z</time>
      </trkpt>
      <trkpt lat="45.65349" lon="13.98227">
        <ele>434.644805908204</ele>
        <time>2006-01-21T15:06:20Z</time>
      </trkpt>
      <trkpt lat="45.65349" lon="13.98231">
        <ele>435.132476806641</ele>
        <time>2006-01-21T15:06:36Z</time>
      </trkpt>
      <trkpt lat="45.65351" lon="13.98246">
        <ele>435.132476806641</ele>
        <time>2006-01-21T15:06:55Z</time>
      </trkpt>
      <trkpt lat="45.65356" lon="13.98272">
        <ele>435.620147705078</ele>
        <time>2006-01-21T15:07:15Z</time>
      </trkpt>
      <trkpt lat="45.6536" lon="13.98304">
        <ele>436.107849121094</ele>
        <time>2006-01-21T15:07:33Z</time>
      </trkpt>
      <trkpt lat="45.65367" lon="13.98339">
        <ele>435.132476806641</ele>
        <time>2006-01-21T15:07:54Z</time>
      </trkpt>
      <trkpt lat="45.65371" lon="13.98375">
        <ele>435.620147705078</ele>
        <time>2006-01-21T15:08:15Z</time>
      </trkpt>
      <trkpt lat="45.65375" lon="13.98412">
        <ele>435.132476806641</ele>
        <time>2006-01-21T15:08:35Z</time>
      </trkpt>
      <trkpt lat="45.65375" lon="13.9842">
        <ele>431.779663085938</ele>
        <time>2006-01-21T15:08:48Z</time>
      </trkpt>
      <trkpt lat="45.65375" lon="13.9842">
        <ele>431.779663085938</ele>
        <time>2006-01-21T15:08:49Z</time>
      </trkpt>
      <trkpt lat="45.65375" lon="13.9842">
        <ele>436.565063476562</ele>
        <time>2006-01-21T15:08:50Z</time>
      </trkpt>
      <trkpt lat="45.65375" lon="13.9842">
        <ele>434.644805908204</ele>
        <time>2006-01-21T15:08:51Z</time>
      </trkpt>
      <trkpt lat="45.65375" lon="13.98446">
        <ele>434.644805908204</ele>
        <time>2006-01-21T15:09:11Z</time>
      </trkpt>
      <trkpt lat="45.65375" lon="13.9845">
        <ele>434.644805908204</ele>
        <time>2006-01-21T15:09:14Z</time>
      </trkpt>
      <trkpt lat="45.65386" lon="13.98474">
        <ele>435.620147705078</ele>
        <time>2006-01-21T15:09:32Z</time>
      </trkpt>
      <trkpt lat="45.65392" lon="13.98482">
        <ele>437.540405273436</ele>
        <time>2006-01-21T15:09:48Z</time>
      </trkpt>
      <trkpt lat="45.65394" lon="13.98487">
        <ele>435.620147705078</ele>
        <time>2006-01-21T15:10:21Z</time>
      </trkpt>
      <trkpt lat="45.65394" lon="13.98489">
        <ele>438.485260009765</ele>
        <time>2006-01-21T15:10:22Z</time>
      </trkpt>
      <trkpt lat="45.65399" lon="13.98493">
        <ele>438.485260009765</ele>
        <time>2006-01-21T15:10:32Z</time>
      </trkpt>
      <trkpt lat="45.65422" lon="13.98512">
        <ele>438.028076171874</ele>
        <time>2006-01-21T15:10:55Z</time>
      </trkpt>
      <trkpt lat="45.65444" lon="13.98527">
        <ele>440.436004638672</ele>
        <time>2006-01-21T15:11:19Z</time>
      </trkpt>
      <trkpt lat="45.65461" lon="13.9854">
        <ele>442.35626220703</ele>
        <time>2006-01-21T15:11:42Z</time>
      </trkpt>
      <trkpt lat="45.65465" lon="13.98545">
        <ele>443.301116943359</ele>
        <time>2006-01-21T15:11:49Z</time>
      </trkpt>
      <trkpt lat="45.6548" lon="13.98545">
        <ele>445.709045410157</ele>
        <time>2006-01-21T15:12:09Z</time>
      </trkpt>
      <trkpt lat="45.65487" lon="13.98545">
        <ele>445.709045410157</ele>
        <time>2006-01-21T15:12:26Z</time>
      </trkpt>
      <trkpt lat="45.65506" lon="13.98542">
        <ele>445.709045410157</ele>
        <time>2006-01-21T15:12:52Z</time>
      </trkpt>
      <trkpt lat="45.6551" lon="13.98542">
        <ele>445.221343994141</ele>
        <time>2006-01-21T15:12:58Z</time>
      </trkpt>
      <trkpt lat="45.6553" lon="13.98542">
        <ele>445.709045410157</ele>
        <time>2006-01-21T15:13:18Z</time>
      </trkpt>
      <trkpt lat="45.65547" lon="13.98536">
        <ele>446.684387207032</ele>
        <time>2006-01-21T15:13:38Z</time>
      </trkpt>
      <trkpt lat="45.65562" lon="13.9853">
        <ele>448.116943359374</ele>
        <time>2006-01-21T15:13:57Z</time>
      </trkpt>
      <trkpt lat="45.65577" lon="13.98523">
        <ele>449.549530029298</ele>
        <time>2006-01-21T15:14:18Z</time>
      </trkpt>
      <trkpt lat="45.65585" lon="13.98523">
        <ele>450.524871826172</ele>
        <time>2006-01-21T15:14:39Z</time>
      </trkpt>
      <trkpt lat="45.65594" lon="13.98525">
        <ele>450.524871826172</ele>
        <time>2006-01-21T15:14:57Z</time>
      </trkpt>
      <trkpt lat="45.65613" lon="13.98525">
        <ele>451.957458496093</ele>
        <time>2006-01-21T15:15:19Z</time>
      </trkpt>
      <trkpt lat="45.65635" lon="13.98523">
        <ele>453.390014648438</ele>
        <time>2006-01-21T15:15:41Z</time>
      </trkpt>
      <trkpt lat="45.65654" lon="13.98523">
        <ele>455.797912597658</ele>
        <time>2006-01-21T15:16:05Z</time>
      </trkpt>
      <trkpt lat="45.65678" lon="13.98525">
        <ele>456.773284912108</ele>
        <time>2006-01-21T15:16:28Z</time>
      </trkpt>
      <trkpt lat="45.65697" lon="13.98532">
        <ele>457.718139648437</ele>
        <time>2006-01-21T15:16:49Z</time>
      </trkpt>
      <trkpt lat="45.65721" lon="13.98536">
        <ele>457.718139648437</ele>
        <time>2006-01-21T15:17:12Z</time>
      </trkpt>
      <trkpt lat="45.65738" lon="13.98534">
        <ele>457.718139648437</ele>
        <time>2006-01-21T15:17:32Z</time>
      </trkpt>
      <trkpt lat="45.65744" lon="13.98536">
        <ele>456.285614013671</ele>
        <time>2006-01-21T15:17:38Z</time>
      </trkpt>
      <trkpt lat="45.65763" lon="13.98536">
        <ele>454.365356445313</ele>
        <time>2006-01-21T15:18:01Z</time>
      </trkpt>
      <trkpt lat="45.65772" lon="13.9854">
        <ele>453.877685546875</ele>
        <time>2006-01-21T15:18:16Z</time>
      </trkpt>
      <trkpt lat="45.65785" lon="13.98534">
        <ele>451.957458496093</ele>
        <time>2006-01-21T15:18:38Z</time>
      </trkpt>
      <trkpt lat="45.65815" lon="13.98545">
        <ele>450.037200927735</ele>
        <time>2006-01-21T15:19:06Z</time>
      </trkpt>
      <trkpt lat="45.65845" lon="13.98557">
        <ele>447.141601562499</ele>
        <time>2006-01-21T15:19:31Z</time>
      </trkpt>
      <trkpt lat="45.65873" lon="13.98566">
        <ele>444.733673095704</ele>
        <time>2006-01-21T15:19:58Z</time>
      </trkpt>
      <trkpt lat="45.65894" lon="13.98566">
        <ele>441.380859375001</ele>
        <time>2006-01-21T15:20:19Z</time>
      </trkpt>
      <trkpt lat="45.65927" lon="13.9857">
        <ele>438.028076171874</ele>
        <time>2006-01-21T15:20:48Z</time>
      </trkpt>
      <trkpt lat="45.65954" lon="13.98572">
        <ele>434.644805908204</ele>
        <time>2006-01-21T15:21:13Z</time>
      </trkpt>
      <trkpt lat="45.65991" lon="13.98572">
        <ele>432.236877441405</ele>
        <time>2006-01-21T15:21:38Z</time>
      </trkpt>
      <trkpt lat="45.66006" lon="13.98568">
        <ele>430.804321289063</ele>
        <time>2006-01-21T15:21:50Z</time>
      </trkpt>
      <trkpt lat="45.66021" lon="13.98564">
        <ele>427.451538085939</ele>
        <time>2006-01-21T15:22:03Z</time>
      </trkpt>
      <trkpt lat="45.66027" lon="13.98566">
        <ele>426.476135253907</ele>
        <time>2006-01-21T15:22:07Z</time>
      </trkpt>
      <trkpt lat="45.66042" lon="13.98607">
        <ele>424.068267822266</ele>
        <time>2006-01-21T15:22:29Z</time>
      </trkpt>
      <trkpt lat="45.66051" lon="13.98624">
        <ele>422.148010253905</ele>
        <time>2006-01-21T15:22:44Z</time>
      </trkpt>
      <trkpt lat="45.66057" lon="13.9863">
        <ele>420.227752685547</ele>
        <time>2006-01-21T15:22:51Z</time>
      </trkpt>
      <trkpt lat="45.66079" lon="13.98654">
        <ele>418.307525634764</ele>
        <time>2006-01-21T15:23:15Z</time>
      </trkpt>
      <trkpt lat="45.6609" lon="13.98665">
        <ele>419.74008178711</ele>
        <time>2006-01-21T15:23:26Z</time>
      </trkpt>
      <trkpt lat="45.66109" lon="13.9869">
        <ele>418.307525634764</ele>
        <time>2006-01-21T15:23:48Z</time>
      </trkpt>
      <trkpt lat="45.6613" lon="13.98716">
        <ele>417.819854736327</ele>
        <time>2006-01-21T15:24:14Z</time>
      </trkpt>
      <trkpt lat="45.66137" lon="13.98723">
        <ele>416.874938964844</ele>
        <time>2006-01-21T15:24:30Z</time>
      </trkpt>
      <trkpt lat="45.66137" lon="13.98727">
        <ele>416.874938964844</ele>
        <time>2006-01-21T15:24:34Z</time>
      </trkpt>
      <trkpt lat="45.66139" lon="13.98738">
        <ele>416.387268066406</ele>
        <time>2006-01-21T15:24:50Z</time>
      </trkpt>
      <trkpt lat="45.66148" lon="13.98766">
        <ele>413.979339599608</ele>
        <time>2006-01-21T15:25:10Z</time>
      </trkpt>
      <trkpt lat="45.66152" lon="13.98783">
        <ele>413.979339599608</ele>
        <time>2006-01-21T15:25:23Z</time>
      </trkpt>
      <trkpt lat="45.66165" lon="13.98828">
        <ele>414.467041015624</ele>
        <time>2006-01-21T15:25:51Z</time>
      </trkpt>
      <trkpt lat="45.6618" lon="13.98866">
        <ele>412.059112548829</ele>
        <time>2006-01-21T15:26:17Z</time>
      </trkpt>
      <trkpt lat="45.66188" lon="13.98869">
        <ele>411.1142578125</ele>
        <time>2006-01-21T15:26:26Z</time>
      </trkpt>
      <trkpt lat="45.66195" lon="13.98864">
        <ele>411.571441650392</ele>
        <time>2006-01-21T15:26:34Z</time>
      </trkpt>
      <trkpt lat="45.66197" lon="13.98858">
        <ele>413.034484863282</ele>
        <time>2006-01-21T15:26:40Z</time>
      </trkpt>
      <trkpt lat="45.66199" lon="13.98854">
        <ele>413.034484863282</ele>
        <time>2006-01-21T15:26:43Z</time>
      </trkpt>
      <trkpt lat="45.66216" lon="13.98858">
        <ele>414.467041015624</ele>
        <time>2006-01-21T15:27:01Z</time>
      </trkpt>
      <trkpt lat="45.66236" lon="13.98875">
        <ele>414.95474243164</ele>
        <time>2006-01-21T15:27:24Z</time>
      </trkpt>
      <trkpt lat="45.66253" lon="13.98892">
        <ele>415.899597167969</ele>
        <time>2006-01-21T15:27:46Z</time>
      </trkpt>
      <trkpt lat="45.66274" lon="13.98907">
        <ele>417.36264038086</ele>
        <time>2006-01-21T15:28:08Z</time>
      </trkpt>
      <trkpt lat="45.66278" lon="13.98907">
        <ele>417.36264038086</ele>
        <time>2006-01-21T15:28:25Z</time>
      </trkpt>
      <trkpt lat="45.66278" lon="13.98903">
        <ele>417.36264038086</ele>
        <time>2006-01-21T15:29:03Z</time>
      </trkpt>
      <trkpt lat="45.66281" lon="13.98905">
        <ele>416.874938964844</ele>
        <time>2006-01-21T15:29:45Z</time>
      </trkpt>
    </trkseg>
  </trk>
</gpx>
